<?xml version="1.0" encoding="UTF-8" standalone="no" ?>
<gpx xmlns="http://www.topografix.com/GPX/1/1" xmlns:xsi="http://www.w3.org/2001/XMLSchema-instance" xsi:schemaLocation="http://www.topografix.com/GPX/1/1 http://www.topografix.com/GPX/1/1/gpx.xsd" version="1.1" creator="VisuGPX - https://www.visugpx.com">
  <metadata>
    <name>035SG79-8208546</name>
    <desc><![CDATA[
03]]></desc>
  </metadata>
  <trk>
    <name><![CDATA[035SG79-8208546]]></name>
    <trkseg>
      <trkpt lat="46.69878" lon="-1.93388">
        <ele>5</ele>
        <time>2018-03-20T22:11:17Z</time>
      </trkpt>
      <trkpt lat="46.69813" lon="-1.9341">
        <ele>5</ele>
        <time>2018-03-20T22:12:17Z</time>
      </trkpt>
      <trkpt lat="46.69793" lon="-1.9342">
        <ele>5</ele>
        <time>2018-03-20T22:13:17Z</time>
      </trkpt>
      <trkpt lat="46.69793" lon="-1.93426">
        <ele>5</ele>
        <time>2018-03-20T22:14:17Z</time>
      </trkpt>
      <trkpt lat="46.6979" lon="-1.9343">
        <ele>5</ele>
        <time>2018-03-20T22:15:17Z</time>
      </trkpt>
      <trkpt lat="46.69785" lon="-1.93429">
        <ele>5</ele>
        <time>2018-03-20T22:16:17Z</time>
      </trkpt>
      <trkpt lat="46.69784" lon="-1.93422">
        <ele>5</ele>
        <time>2018-03-20T22:17:17Z</time>
      </trkpt>
      <trkpt lat="46.69777" lon="-1.93421">
        <ele>5</ele>
        <time>2018-03-20T22:18:17Z</time>
      </trkpt>
      <trkpt lat="46.69709" lon="-1.93437">
        <ele>5</ele>
        <time>2018-03-20T22:19:17Z</time>
      </trkpt>
      <trkpt lat="46.69684" lon="-1.93436">
        <ele>5</ele>
        <time>2018-03-20T22:20:17Z</time>
      </trkpt>
      <trkpt lat="46.69667" lon="-1.93431">
        <ele>5</ele>
        <time>2018-03-20T22:21:17Z</time>
      </trkpt>
      <trkpt lat="46.69631" lon="-1.93425">
        <ele>4</ele>
        <time>2018-03-20T22:22:17Z</time>
      </trkpt>
      <trkpt lat="46.69631" lon="-1.93428">
        <ele>4</ele>
        <time>2018-03-20T22:23:17Z</time>
      </trkpt>
      <trkpt lat="46.69627" lon="-1.93435">
        <ele>4</ele>
        <time>2018-03-20T22:24:17Z</time>
      </trkpt>
      <trkpt lat="46.69621" lon="-1.93435">
        <ele>4</ele>
        <time>2018-03-20T22:25:17Z</time>
      </trkpt>
      <trkpt lat="46.69596" lon="-1.93577">
        <ele>4</ele>
        <time>2018-03-20T22:26:17Z</time>
      </trkpt>
      <trkpt lat="46.69601" lon="-1.93581">
        <ele>4</ele>
        <time>2018-03-20T22:27:17Z</time>
      </trkpt>
      <trkpt lat="46.69617" lon="-1.93615">
        <ele>4</ele>
        <time>2018-03-20T22:28:17Z</time>
      </trkpt>
      <trkpt lat="46.69704" lon="-1.93707">
        <ele>3</ele>
        <time>2018-03-20T22:29:17Z</time>
      </trkpt>
      <trkpt lat="46.69765" lon="-1.93748">
        <ele>4</ele>
        <time>2018-03-20T22:30:17Z</time>
      </trkpt>
      <trkpt lat="46.69879" lon="-1.93812">
        <ele>3</ele>
        <time>2018-03-20T22:31:17Z</time>
      </trkpt>
      <trkpt lat="46.69921" lon="-1.93827">
        <ele>1</ele>
        <time>2018-03-20T22:32:17Z</time>
      </trkpt>
      <trkpt lat="46.69921" lon="-1.93827">
        <ele>1</ele>
        <time>2018-03-20T22:33:17Z</time>
      </trkpt>
      <trkpt lat="46.70072" lon="-1.93884">
        <ele>3</ele>
        <time>2018-03-20T22:34:17Z</time>
      </trkpt>
      <trkpt lat="46.70114" lon="-1.93907">
        <ele>3</ele>
        <time>2018-03-20T22:35:17Z</time>
      </trkpt>
      <trkpt lat="46.70143" lon="-1.93933">
        <ele>3</ele>
        <time>2018-03-20T22:36:17Z</time>
      </trkpt>
      <trkpt lat="46.70148" lon="-1.93927">
        <ele>3</ele>
        <time>2018-03-20T22:37:17Z</time>
      </trkpt>
      <trkpt lat="46.70155" lon="-1.93926">
        <ele>3</ele>
        <time>2018-03-20T22:38:17Z</time>
      </trkpt>
      <trkpt lat="46.70158" lon="-1.93928">
        <ele>3</ele>
        <time>2018-03-20T22:39:17Z</time>
      </trkpt>
      <trkpt lat="46.70162" lon="-1.93938">
        <ele>3</ele>
        <time>2018-03-20T22:40:17Z</time>
      </trkpt>
      <trkpt lat="46.70162" lon="-1.93946">
        <ele>3</ele>
        <time>2018-03-20T22:41:17Z</time>
      </trkpt>
      <trkpt lat="46.70159" lon="-1.93953">
        <ele>3</ele>
        <time>2018-03-20T22:42:17Z</time>
      </trkpt>
      <trkpt lat="46.7015" lon="-1.93956">
        <ele>3</ele>
        <time>2018-03-20T22:43:17Z</time>
      </trkpt>
      <trkpt lat="46.70151" lon="-1.93989">
        <ele>2</ele>
        <time>2018-03-20T22:44:17Z</time>
      </trkpt>
      <trkpt lat="46.70181" lon="-1.94236">
        <ele>5</ele>
        <time>2018-03-20T22:45:17Z</time>
      </trkpt>
      <trkpt lat="46.70183" lon="-1.94268">
        <ele>5</ele>
        <time>2018-03-20T22:46:17Z</time>
      </trkpt>
      <trkpt lat="46.70168" lon="-1.94427">
        <ele>4</ele>
        <time>2018-03-20T22:47:17Z</time>
      </trkpt>
      <trkpt lat="46.70165" lon="-1.94576">
        <ele>4</ele>
        <time>2018-03-20T22:48:17Z</time>
      </trkpt>
      <trkpt lat="46.70165" lon="-1.94656">
        <ele>4</ele>
        <time>2018-03-20T22:49:17Z</time>
      </trkpt>
      <trkpt lat="46.7017" lon="-1.94658">
        <ele>4</ele>
        <time>2018-03-20T22:50:17Z</time>
      </trkpt>
      <trkpt lat="46.70174" lon="-1.94664">
        <ele>4</ele>
        <time>2018-03-20T22:51:17Z</time>
      </trkpt>
      <trkpt lat="46.70175" lon="-1.94674">
        <ele>4</ele>
        <time>2018-03-20T22:52:17Z</time>
      </trkpt>
      <trkpt lat="46.70172" lon="-1.94682">
        <ele>4</ele>
        <time>2018-03-20T22:53:17Z</time>
      </trkpt>
      <trkpt lat="46.70167" lon="-1.94686">
        <ele>4</ele>
        <time>2018-03-20T22:54:17Z</time>
      </trkpt>
      <trkpt lat="46.70164" lon="-1.94733">
        <ele>3</ele>
        <time>2018-03-20T22:55:17Z</time>
      </trkpt>
      <trkpt lat="46.70158" lon="-1.94877">
        <ele>2</ele>
        <time>2018-03-20T22:56:17Z</time>
      </trkpt>
      <trkpt lat="46.70155" lon="-1.95079">
        <ele>5</ele>
        <time>2018-03-20T22:57:17Z</time>
      </trkpt>
      <trkpt lat="46.70157" lon="-1.95112">
        <ele>5</ele>
        <time>2018-03-20T22:58:17Z</time>
      </trkpt>
      <trkpt lat="46.70163" lon="-1.95164">
        <ele>6</ele>
        <time>2018-03-20T22:59:17Z</time>
      </trkpt>
      <trkpt lat="46.70162" lon="-1.95255">
        <ele>5</ele>
        <time>2018-03-20T23:00:17Z</time>
      </trkpt>
      <trkpt lat="46.70141" lon="-1.9539">
        <ele>8</ele>
        <time>2018-03-20T23:01:17Z</time>
      </trkpt>
      <trkpt lat="46.70137" lon="-1.95441">
        <ele>9</ele>
        <time>2018-03-20T23:02:17Z</time>
      </trkpt>
      <trkpt lat="46.70142" lon="-1.95491">
        <ele>9</ele>
        <time>2018-03-20T23:03:17Z</time>
      </trkpt>
      <trkpt lat="46.70159" lon="-1.95594">
        <ele>10</ele>
        <time>2018-03-20T23:04:17Z</time>
      </trkpt>
      <trkpt lat="46.70163" lon="-1.95628">
        <ele>11</ele>
        <time>2018-03-20T23:05:17Z</time>
      </trkpt>
      <trkpt lat="46.70167" lon="-1.95628">
        <ele>11</ele>
        <time>2018-03-20T23:06:17Z</time>
      </trkpt>
      <trkpt lat="46.70173" lon="-1.95634">
        <ele>11</ele>
        <time>2018-03-20T23:07:17Z</time>
      </trkpt>
      <trkpt lat="46.70174" lon="-1.9564">
        <ele>11</ele>
        <time>2018-03-20T23:08:17Z</time>
      </trkpt>
      <trkpt lat="46.70174" lon="-1.95645">
        <ele>11</ele>
        <time>2018-03-20T23:09:17Z</time>
      </trkpt>
      <trkpt lat="46.70171" lon="-1.95654">
        <ele>12</ele>
        <time>2018-03-20T23:10:17Z</time>
      </trkpt>
      <trkpt lat="46.70168" lon="-1.95656">
        <ele>12</ele>
        <time>2018-03-20T23:11:17Z</time>
      </trkpt>
      <trkpt lat="46.70184" lon="-1.95714">
        <ele>12</ele>
        <time>2018-03-20T23:12:17Z</time>
      </trkpt>
      <trkpt lat="46.70208" lon="-1.95782">
        <ele>12</ele>
        <time>2018-03-20T23:13:17Z</time>
      </trkpt>
      <trkpt lat="46.70227" lon="-1.95815">
        <ele>12</ele>
        <time>2018-03-20T23:14:17Z</time>
      </trkpt>
      <trkpt lat="46.70251" lon="-1.95847">
        <ele>12</ele>
        <time>2018-03-20T23:15:17Z</time>
      </trkpt>
      <trkpt lat="46.70273" lon="-1.95874">
        <ele>13</ele>
        <time>2018-03-20T23:16:17Z</time>
      </trkpt>
      <trkpt lat="46.70345" lon="-1.95942">
        <ele>14</ele>
        <time>2018-03-20T23:17:17Z</time>
      </trkpt>
      <trkpt lat="46.70349" lon="-1.95936">
        <ele>14</ele>
        <time>2018-03-20T23:18:17Z</time>
      </trkpt>
      <trkpt lat="46.70355" lon="-1.95936">
        <ele>14</ele>
        <time>2018-03-20T23:19:17Z</time>
      </trkpt>
      <trkpt lat="46.70359" lon="-1.95943">
        <ele>15</ele>
        <time>2018-03-20T23:20:17Z</time>
      </trkpt>
      <trkpt lat="46.70359" lon="-1.95952">
        <ele>15</ele>
        <time>2018-03-20T23:21:17Z</time>
      </trkpt>
      <trkpt lat="46.70461" lon="-1.96012">
        <ele>15</ele>
        <time>2018-03-20T23:22:17Z</time>
      </trkpt>
      <trkpt lat="46.70494" lon="-1.96027">
        <ele>15</ele>
        <time>2018-03-20T23:23:17Z</time>
      </trkpt>
      <trkpt lat="46.70592" lon="-1.96057">
        <ele>16</ele>
        <time>2018-03-20T23:24:17Z</time>
      </trkpt>
      <trkpt lat="46.70704" lon="-1.96073">
        <ele>16</ele>
        <time>2018-03-20T23:25:17Z</time>
      </trkpt>
      <trkpt lat="46.70732" lon="-1.96062">
        <ele>16</ele>
        <time>2018-03-20T23:26:17Z</time>
      </trkpt>
      <trkpt lat="46.70737" lon="-1.96069">
        <ele>16</ele>
        <time>2018-03-20T23:27:17Z</time>
      </trkpt>
      <trkpt lat="46.70737" lon="-1.96077">
        <ele>16</ele>
        <time>2018-03-20T23:28:17Z</time>
      </trkpt>
      <trkpt lat="46.70824" lon="-1.96083">
        <ele>15</ele>
        <time>2018-03-20T23:29:17Z</time>
      </trkpt>
      <trkpt lat="46.7097" lon="-1.96097">
        <ele>16</ele>
        <time>2018-03-20T23:30:17Z</time>
      </trkpt>
      <trkpt lat="46.70973" lon="-1.9609">
        <ele>16</ele>
        <time>2018-03-20T23:31:17Z</time>
      </trkpt>
      <trkpt lat="46.7098" lon="-1.96091">
        <ele>16</ele>
        <time>2018-03-20T23:32:17Z</time>
      </trkpt>
      <trkpt lat="46.70983" lon="-1.961">
        <ele>16</ele>
        <time>2018-03-20T23:33:17Z</time>
      </trkpt>
      <trkpt lat="46.70981" lon="-1.96105">
        <ele>16</ele>
        <time>2018-03-20T23:34:17Z</time>
      </trkpt>
      <trkpt lat="46.70977" lon="-1.96108">
        <ele>16</ele>
        <time>2018-03-20T23:35:17Z</time>
      </trkpt>
      <trkpt lat="46.70978" lon="-1.96126">
        <ele>15</ele>
        <time>2018-03-20T23:36:17Z</time>
      </trkpt>
      <trkpt lat="46.70981" lon="-1.96248">
        <ele>13</ele>
        <time>2018-03-20T23:37:17Z</time>
      </trkpt>
      <trkpt lat="46.70981" lon="-1.96307">
        <ele>13</ele>
        <time>2018-03-20T23:38:17Z</time>
      </trkpt>
      <trkpt lat="46.70978" lon="-1.96359">
        <ele>13</ele>
        <time>2018-03-20T23:39:17Z</time>
      </trkpt>
      <trkpt lat="46.70978" lon="-1.96359">
        <ele>13</ele>
        <time>2018-03-20T23:40:17Z</time>
      </trkpt>
      <trkpt lat="46.70972" lon="-1.96401">
        <ele>14</ele>
        <time>2018-03-20T23:41:17Z</time>
      </trkpt>
      <trkpt lat="46.70959" lon="-1.96471">
        <ele>14</ele>
        <time>2018-03-20T23:42:17Z</time>
      </trkpt>
      <trkpt lat="46.70944" lon="-1.96518">
        <ele>14</ele>
        <time>2018-03-20T23:43:17Z</time>
      </trkpt>
      <trkpt lat="46.70939" lon="-1.96593">
        <ele>13</ele>
        <time>2018-03-20T23:44:17Z</time>
      </trkpt>
      <trkpt lat="46.70942" lon="-1.96622">
        <ele>13</ele>
        <time>2018-03-20T23:45:17Z</time>
      </trkpt>
      <trkpt lat="46.70949" lon="-1.96643">
        <ele>13</ele>
        <time>2018-03-20T23:46:17Z</time>
      </trkpt>
      <trkpt lat="46.70985" lon="-1.96728">
        <ele>13</ele>
        <time>2018-03-20T23:47:17Z</time>
      </trkpt>
      <trkpt lat="46.71" lon="-1.96751">
        <ele>13</ele>
        <time>2018-03-20T23:48:17Z</time>
      </trkpt>
      <trkpt lat="46.71007" lon="-1.96749">
        <ele>13</ele>
        <time>2018-03-20T23:49:17Z</time>
      </trkpt>
      <trkpt lat="46.71015" lon="-1.9675">
        <ele>13</ele>
        <time>2018-03-20T23:50:17Z</time>
      </trkpt>
      <trkpt lat="46.71024" lon="-1.9676">
        <ele>13</ele>
        <time>2018-03-20T23:51:17Z</time>
      </trkpt>
      <trkpt lat="46.71047" lon="-1.96769">
        <ele>13</ele>
        <time>2018-03-20T23:52:17Z</time>
      </trkpt>
      <trkpt lat="46.71237" lon="-1.96768">
        <ele>15</ele>
        <time>2018-03-20T23:53:17Z</time>
      </trkpt>
      <trkpt lat="46.7125" lon="-1.96763">
        <ele>15</ele>
        <time>2018-03-20T23:54:17Z</time>
      </trkpt>
      <trkpt lat="46.71286" lon="-1.96755">
        <ele>16</ele>
        <time>2018-03-20T23:55:17Z</time>
      </trkpt>
      <trkpt lat="46.71324" lon="-1.96755">
        <ele>17</ele>
        <time>2018-03-20T23:56:17Z</time>
      </trkpt>
      <trkpt lat="46.71366" lon="-1.96764">
        <ele>15</ele>
        <time>2018-03-20T23:57:17Z</time>
      </trkpt>
      <trkpt lat="46.71401" lon="-1.96782">
        <ele>14</ele>
        <time>2018-03-20T23:58:17Z</time>
      </trkpt>
      <trkpt lat="46.71406" lon="-1.96782">
        <ele>14</ele>
        <time>2018-03-20T23:59:17Z</time>
      </trkpt>
      <trkpt lat="46.71473" lon="-1.96803">
        <ele>13</ele>
        <time>2018-03-21T00:00:17Z</time>
      </trkpt>
      <trkpt lat="46.71501" lon="-1.96808">
        <ele>13</ele>
        <time>2018-03-21T00:01:17Z</time>
      </trkpt>
      <trkpt lat="46.71575" lon="-1.96812">
        <ele>14</ele>
        <time>2018-03-21T00:02:17Z</time>
      </trkpt>
      <trkpt lat="46.71589" lon="-1.9681">
        <ele>14</ele>
        <time>2018-03-21T00:03:17Z</time>
      </trkpt>
      <trkpt lat="46.71649" lon="-1.96774">
        <ele>14</ele>
        <time>2018-03-21T00:04:17Z</time>
      </trkpt>
      <trkpt lat="46.71664" lon="-1.96774">
        <ele>14</ele>
        <time>2018-03-21T00:05:17Z</time>
      </trkpt>
      <trkpt lat="46.71681" lon="-1.96777">
        <ele>14</ele>
        <time>2018-03-21T00:06:17Z</time>
      </trkpt>
      <trkpt lat="46.71702" lon="-1.96789">
        <ele>13</ele>
        <time>2018-03-21T00:07:17Z</time>
      </trkpt>
      <trkpt lat="46.71743" lon="-1.96818">
        <ele>13</ele>
        <time>2018-03-21T00:08:17Z</time>
      </trkpt>
      <trkpt lat="46.71803" lon="-1.96841">
        <ele>14</ele>
        <time>2018-03-21T00:09:17Z</time>
      </trkpt>
      <trkpt lat="46.71832" lon="-1.96862">
        <ele>14</ele>
        <time>2018-03-21T00:10:17Z</time>
      </trkpt>
      <trkpt lat="46.71835" lon="-1.96866">
        <ele>14</ele>
        <time>2018-03-21T00:11:17Z</time>
      </trkpt>
      <trkpt lat="46.71876" lon="-1.9688">
        <ele>15</ele>
        <time>2018-03-21T00:12:17Z</time>
      </trkpt>
      <trkpt lat="46.72077" lon="-1.97262">
        <ele>9</ele>
        <time>2018-03-21T00:13:17Z</time>
      </trkpt>
      <trkpt lat="46.72398" lon="-1.97826">
        <ele>7</ele>
        <time>2018-03-21T00:14:17Z</time>
      </trkpt>
      <trkpt lat="46.72403" lon="-1.97824">
        <ele>7</ele>
        <time>2018-03-21T00:15:17Z</time>
      </trkpt>
      <trkpt lat="46.72408" lon="-1.97826">
        <ele>6</ele>
        <time>2018-03-21T00:16:17Z</time>
      </trkpt>
      <trkpt lat="46.72411" lon="-1.97832">
        <ele>6</ele>
        <time>2018-03-21T00:17:17Z</time>
      </trkpt>
      <trkpt lat="46.72411" lon="-1.97839">
        <ele>6</ele>
        <time>2018-03-21T00:18:17Z</time>
      </trkpt>
      <trkpt lat="46.72408" lon="-1.97845">
        <ele>7</ele>
        <time>2018-03-21T00:19:17Z</time>
      </trkpt>
      <trkpt lat="46.72452" lon="-1.97911">
        <ele>8</ele>
        <time>2018-03-21T00:20:17Z</time>
      </trkpt>
      <trkpt lat="46.72479" lon="-1.97942">
        <ele>8</ele>
        <time>2018-03-21T00:21:17Z</time>
      </trkpt>
      <trkpt lat="46.725" lon="-1.97964">
        <ele>8</ele>
        <time>2018-03-21T00:22:17Z</time>
      </trkpt>
      <trkpt lat="46.72736" lon="-1.98125">
        <ele>11</ele>
        <time>2018-03-21T00:23:17Z</time>
      </trkpt>
      <trkpt lat="46.73163" lon="-1.98309">
        <ele>12</ele>
        <time>2018-03-21T00:24:17Z</time>
      </trkpt>
      <trkpt lat="46.73184" lon="-1.98324">
        <ele>12</ele>
        <time>2018-03-21T00:25:17Z</time>
      </trkpt>
      <trkpt lat="46.73333" lon="-1.98467">
        <ele>10</ele>
        <time>2018-03-21T00:26:17Z</time>
      </trkpt>
      <trkpt lat="46.73352" lon="-1.98492">
        <ele>10</ele>
        <time>2018-03-21T00:27:17Z</time>
      </trkpt>
      <trkpt lat="46.73366" lon="-1.98516">
        <ele>9</ele>
        <time>2018-03-21T00:28:17Z</time>
      </trkpt>
      <trkpt lat="46.73375" lon="-1.9854">
        <ele>9</ele>
        <time>2018-03-21T00:29:17Z</time>
      </trkpt>
      <trkpt lat="46.73382" lon="-1.98567">
        <ele>9</ele>
        <time>2018-03-21T00:30:17Z</time>
      </trkpt>
      <trkpt lat="46.73389" lon="-1.98647">
        <ele>9</ele>
        <time>2018-03-21T00:31:17Z</time>
      </trkpt>
      <trkpt lat="46.73394" lon="-1.98674">
        <ele>9</ele>
        <time>2018-03-21T00:32:17Z</time>
      </trkpt>
      <trkpt lat="46.73401" lon="-1.98697">
        <ele>9</ele>
        <time>2018-03-21T00:33:17Z</time>
      </trkpt>
      <trkpt lat="46.73407" lon="-1.98711">
        <ele>9</ele>
        <time>2018-03-21T00:34:17Z</time>
      </trkpt>
      <trkpt lat="46.7342" lon="-1.98729">
        <ele>9</ele>
        <time>2018-03-21T00:35:17Z</time>
      </trkpt>
      <trkpt lat="46.73548" lon="-1.98858">
        <ele>7</ele>
        <time>2018-03-21T00:36:17Z</time>
      </trkpt>
      <trkpt lat="46.73718" lon="-1.99022">
        <ele>8</ele>
        <time>2018-03-21T00:37:17Z</time>
      </trkpt>
      <trkpt lat="46.73868" lon="-1.99171">
        <ele>7</ele>
        <time>2018-03-21T00:38:17Z</time>
      </trkpt>
      <trkpt lat="46.73937" lon="-1.99228">
        <ele>8</ele>
        <time>2018-03-21T00:39:17Z</time>
      </trkpt>
      <trkpt lat="46.73969" lon="-1.99248">
        <ele>9</ele>
        <time>2018-03-21T00:40:17Z</time>
      </trkpt>
      <trkpt lat="46.7401" lon="-1.99263">
        <ele>9</ele>
        <time>2018-03-21T00:41:17Z</time>
      </trkpt>
      <trkpt lat="46.74169" lon="-1.99283">
        <ele>5</ele>
        <time>2018-03-21T00:42:17Z</time>
      </trkpt>
      <trkpt lat="46.7418" lon="-1.9929">
        <ele>5</ele>
        <time>2018-03-21T00:43:17Z</time>
      </trkpt>
      <trkpt lat="46.74187" lon="-1.99282">
        <ele>4</ele>
        <time>2018-03-21T00:44:17Z</time>
      </trkpt>
      <trkpt lat="46.74196" lon="-1.99281">
        <ele>4</ele>
        <time>2018-03-21T00:45:17Z</time>
      </trkpt>
      <trkpt lat="46.74204" lon="-1.99288">
        <ele>4</ele>
        <time>2018-03-21T00:46:17Z</time>
      </trkpt>
      <trkpt lat="46.74208" lon="-1.99299">
        <ele>5</ele>
        <time>2018-03-21T00:47:17Z</time>
      </trkpt>
      <trkpt lat="46.74208" lon="-1.99306">
        <ele>5</ele>
        <time>2018-03-21T00:48:17Z</time>
      </trkpt>
      <trkpt lat="46.74207" lon="-1.99312">
        <ele>5</ele>
        <time>2018-03-21T00:49:17Z</time>
      </trkpt>
      <trkpt lat="46.74202" lon="-1.99322">
        <ele>5</ele>
        <time>2018-03-21T00:50:17Z</time>
      </trkpt>
      <trkpt lat="46.74206" lon="-1.99331">
        <ele>6</ele>
        <time>2018-03-21T00:51:17Z</time>
      </trkpt>
      <trkpt lat="46.74211" lon="-1.99346">
        <ele>5</ele>
        <time>2018-03-21T00:52:17Z</time>
      </trkpt>
      <trkpt lat="46.74215" lon="-1.99367">
        <ele>5</ele>
        <time>2018-03-21T00:53:17Z</time>
      </trkpt>
      <trkpt lat="46.74215" lon="-1.99395">
        <ele>5</ele>
        <time>2018-03-21T00:54:17Z</time>
      </trkpt>
      <trkpt lat="46.7421" lon="-1.99439">
        <ele>5</ele>
        <time>2018-03-21T00:55:17Z</time>
      </trkpt>
      <trkpt lat="46.74202" lon="-1.99483">
        <ele>5</ele>
        <time>2018-03-21T00:56:17Z</time>
      </trkpt>
      <trkpt lat="46.74166" lon="-1.99622">
        <ele>6</ele>
        <time>2018-03-21T00:57:17Z</time>
      </trkpt>
      <trkpt lat="46.74157" lon="-1.99665">
        <ele>5</ele>
        <time>2018-03-21T00:58:17Z</time>
      </trkpt>
      <trkpt lat="46.74154" lon="-1.99687">
        <ele>5</ele>
        <time>2018-03-21T00:59:17Z</time>
      </trkpt>
      <trkpt lat="46.74138" lon="-1.9997">
        <ele>6</ele>
        <time>2018-03-21T01:00:17Z</time>
      </trkpt>
      <trkpt lat="46.7413" lon="-2.0006">
        <ele>6</ele>
        <time>2018-03-21T01:01:17Z</time>
      </trkpt>
      <trkpt lat="46.74122" lon="-2.00117">
        <ele>6</ele>
        <time>2018-03-21T01:02:17Z</time>
      </trkpt>
      <trkpt lat="46.74114" lon="-2.00165">
        <ele>5</ele>
        <time>2018-03-21T01:03:17Z</time>
      </trkpt>
      <trkpt lat="46.74081" lon="-2.00289">
        <ele>3</ele>
        <time>2018-03-21T01:04:17Z</time>
      </trkpt>
      <trkpt lat="46.74065" lon="-2.00361">
        <ele>3</ele>
        <time>2018-03-21T01:05:17Z</time>
      </trkpt>
      <trkpt lat="46.74064" lon="-2.00392">
        <ele>3</ele>
        <time>2018-03-21T01:06:17Z</time>
      </trkpt>
      <trkpt lat="46.74066" lon="-2.00407">
        <ele>3</ele>
        <time>2018-03-21T01:07:17Z</time>
      </trkpt>
      <trkpt lat="46.74072" lon="-2.00426">
        <ele>3</ele>
        <time>2018-03-21T01:08:17Z</time>
      </trkpt>
      <trkpt lat="46.74096" lon="-2.00482">
        <ele>3</ele>
        <time>2018-03-21T01:09:17Z</time>
      </trkpt>
      <trkpt lat="46.74116" lon="-2.00521">
        <ele>3</ele>
        <time>2018-03-21T01:10:17Z</time>
      </trkpt>
      <trkpt lat="46.74151" lon="-2.00568">
        <ele>3</ele>
        <time>2018-03-21T01:11:17Z</time>
      </trkpt>
      <trkpt lat="46.74263" lon="-2.00734">
        <ele>2</ele>
        <time>2018-03-21T01:12:17Z</time>
      </trkpt>
      <trkpt lat="46.74334" lon="-2.00852">
        <ele>3</ele>
        <time>2018-03-21T01:13:17Z</time>
      </trkpt>
      <trkpt lat="46.74347" lon="-2.00869">
        <ele>3</ele>
        <time>2018-03-21T01:14:17Z</time>
      </trkpt>
      <trkpt lat="46.74368" lon="-2.0089">
        <ele>3</ele>
        <time>2018-03-21T01:15:17Z</time>
      </trkpt>
      <trkpt lat="46.74527" lon="-2.01027">
        <ele>5</ele>
        <time>2018-03-21T01:16:17Z</time>
      </trkpt>
      <trkpt lat="46.74637" lon="-2.01158">
        <ele>8</ele>
        <time>2018-03-21T01:17:17Z</time>
      </trkpt>
      <trkpt lat="46.74665" lon="-2.01185">
        <ele>8</ele>
        <time>2018-03-21T01:18:17Z</time>
      </trkpt>
      <trkpt lat="46.74683" lon="-2.012">
        <ele>8</ele>
        <time>2018-03-21T01:19:17Z</time>
      </trkpt>
      <trkpt lat="46.74799" lon="-2.01275">
        <ele>6</ele>
        <time>2018-03-21T01:20:17Z</time>
      </trkpt>
      <trkpt lat="46.7493" lon="-2.01347">
        <ele>7</ele>
        <time>2018-03-21T01:21:17Z</time>
      </trkpt>
      <trkpt lat="46.74946" lon="-2.0136">
        <ele>6</ele>
        <time>2018-03-21T01:22:17Z</time>
      </trkpt>
      <trkpt lat="46.74971" lon="-2.01393">
        <ele>5</ele>
        <time>2018-03-21T01:23:17Z</time>
      </trkpt>
      <trkpt lat="46.75018" lon="-2.01479">
        <ele>4</ele>
        <time>2018-03-21T01:24:17Z</time>
      </trkpt>
      <trkpt lat="46.75049" lon="-2.01523">
        <ele>4</ele>
        <time>2018-03-21T01:25:17Z</time>
      </trkpt>
      <trkpt lat="46.75049" lon="-2.01523">
        <ele>4</ele>
        <time>2018-03-21T01:26:17Z</time>
      </trkpt>
      <trkpt lat="46.75062" lon="-2.01541">
        <ele>4</ele>
        <time>2018-03-21T01:27:17Z</time>
      </trkpt>
      <trkpt lat="46.75093" lon="-2.01579">
        <ele>4</ele>
        <time>2018-03-21T01:28:17Z</time>
      </trkpt>
      <trkpt lat="46.75106" lon="-2.01589">
        <ele>4</ele>
        <time>2018-03-21T01:29:17Z</time>
      </trkpt>
      <trkpt lat="46.75111" lon="-2.01593">
        <ele>3</ele>
        <time>2018-03-21T01:30:17Z</time>
      </trkpt>
      <trkpt lat="46.75119" lon="-2.01585">
        <ele>3</ele>
        <time>2018-03-21T01:31:17Z</time>
      </trkpt>
      <trkpt lat="46.75126" lon="-2.01585">
        <ele>3</ele>
        <time>2018-03-21T01:32:17Z</time>
      </trkpt>
      <trkpt lat="46.75131" lon="-2.01589">
        <ele>3</ele>
        <time>2018-03-21T01:33:17Z</time>
      </trkpt>
      <trkpt lat="46.7514" lon="-2.01575">
        <ele>3</ele>
        <time>2018-03-21T01:34:17Z</time>
      </trkpt>
      <trkpt lat="46.75173" lon="-2.01545">
        <ele>1</ele>
        <time>2018-03-21T01:35:17Z</time>
      </trkpt>
      <trkpt lat="46.75223" lon="-2.01512">
        <ele>2</ele>
        <time>2018-03-21T01:36:17Z</time>
      </trkpt>
      <trkpt lat="46.75297" lon="-2.01472">
        <ele>1</ele>
        <time>2018-03-21T01:37:17Z</time>
      </trkpt>
      <trkpt lat="46.75372" lon="-2.01429">
        <ele>1</ele>
        <time>2018-03-21T01:38:17Z</time>
      </trkpt>
      <trkpt lat="46.75428" lon="-2.01389">
        <ele>2</ele>
        <time>2018-03-21T01:39:17Z</time>
      </trkpt>
      <trkpt lat="46.75565" lon="-2.0128">
        <ele>3</ele>
        <time>2018-03-21T01:40:17Z</time>
      </trkpt>
      <trkpt lat="46.75612" lon="-2.01257">
        <ele>3</ele>
        <time>2018-03-21T01:41:17Z</time>
      </trkpt>
      <trkpt lat="46.75654" lon="-2.0124">
        <ele>4</ele>
        <time>2018-03-21T01:42:17Z</time>
      </trkpt>
      <trkpt lat="46.75851" lon="-2.0117">
        <ele>4</ele>
        <time>2018-03-21T01:43:17Z</time>
      </trkpt>
      <trkpt lat="46.76068" lon="-2.0113">
        <ele>5</ele>
        <time>2018-03-21T01:44:17Z</time>
      </trkpt>
      <trkpt lat="46.7615" lon="-2.01148">
        <ele>5</ele>
        <time>2018-03-21T01:45:17Z</time>
      </trkpt>
      <trkpt lat="46.76169" lon="-2.01146">
        <ele>5</ele>
        <time>2018-03-21T01:46:17Z</time>
      </trkpt>
      <trkpt lat="46.76187" lon="-2.01131">
        <ele>5</ele>
        <time>2018-03-21T01:47:17Z</time>
      </trkpt>
      <trkpt lat="46.76381" lon="-2.00848">
        <ele>6</ele>
        <time>2018-03-21T01:48:17Z</time>
      </trkpt>
      <trkpt lat="46.76395" lon="-2.00816">
        <ele>7</ele>
        <time>2018-03-21T01:49:17Z</time>
      </trkpt>
      <trkpt lat="46.76453" lon="-2.00649">
        <ele>7</ele>
        <time>2018-03-21T01:50:17Z</time>
      </trkpt>
      <trkpt lat="46.76469" lon="-2.00656">
        <ele>8</ele>
        <time>2018-03-21T01:51:17Z</time>
      </trkpt>
      <trkpt lat="46.76478" lon="-2.00656">
        <ele>9</ele>
        <time>2018-03-21T01:52:17Z</time>
      </trkpt>
      <trkpt lat="46.76488" lon="-2.00651">
        <ele>10</ele>
        <time>2018-03-21T01:53:17Z</time>
      </trkpt>
      <trkpt lat="46.76528" lon="-2.00611">
        <ele>9</ele>
        <time>2018-03-21T01:54:17Z</time>
      </trkpt>
      <trkpt lat="46.76542" lon="-2.006">
        <ele>8</ele>
        <time>2018-03-21T01:55:17Z</time>
      </trkpt>
      <trkpt lat="46.76562" lon="-2.00596">
        <ele>9</ele>
        <time>2018-03-21T01:56:17Z</time>
      </trkpt>
      <trkpt lat="46.76587" lon="-2.00596">
        <ele>10</ele>
        <time>2018-03-21T01:57:17Z</time>
      </trkpt>
      <trkpt lat="46.76647" lon="-2.00554">
        <ele>9</ele>
        <time>2018-03-21T01:58:17Z</time>
      </trkpt>
      <trkpt lat="46.76672" lon="-2.0055">
        <ele>9</ele>
        <time>2018-03-21T01:59:17Z</time>
      </trkpt>
      <trkpt lat="46.76742" lon="-2.00566">
        <ele>7</ele>
        <time>2018-03-21T02:00:17Z</time>
      </trkpt>
      <trkpt lat="46.76754" lon="-2.00566">
        <ele>7</ele>
        <time>2018-03-21T02:01:17Z</time>
      </trkpt>
      <trkpt lat="46.76777" lon="-2.00575">
        <ele>7</ele>
        <time>2018-03-21T02:02:17Z</time>
      </trkpt>
      <trkpt lat="46.76802" lon="-2.00592">
        <ele>7</ele>
        <time>2018-03-21T02:03:17Z</time>
      </trkpt>
      <trkpt lat="46.76834" lon="-2.00603">
        <ele>7</ele>
        <time>2018-03-21T02:04:17Z</time>
      </trkpt>
      <trkpt lat="46.76857" lon="-2.00605">
        <ele>7</ele>
        <time>2018-03-21T02:05:17Z</time>
      </trkpt>
      <trkpt lat="46.76894" lon="-2.00605">
        <ele>6</ele>
        <time>2018-03-21T02:06:17Z</time>
      </trkpt>
      <trkpt lat="46.76918" lon="-2.00622">
        <ele>5</ele>
        <time>2018-03-21T02:07:17Z</time>
      </trkpt>
      <trkpt lat="46.76934" lon="-2.00637">
        <ele>5</ele>
        <time>2018-03-21T02:08:17Z</time>
      </trkpt>
      <trkpt lat="46.76979" lon="-2.00663">
        <ele>4</ele>
        <time>2018-03-21T02:09:17Z</time>
      </trkpt>
      <trkpt lat="46.7705" lon="-2.00789">
        <ele>8</ele>
        <time>2018-03-21T02:10:17Z</time>
      </trkpt>
      <trkpt lat="46.77157" lon="-2.00953">
        <ele>8</ele>
        <time>2018-03-21T02:11:17Z</time>
      </trkpt>
      <trkpt lat="46.77237" lon="-2.01065">
        <ele>11</ele>
        <time>2018-03-21T02:12:17Z</time>
      </trkpt>
      <trkpt lat="46.77248" lon="-2.01072">
        <ele>12</ele>
        <time>2018-03-21T02:13:17Z</time>
      </trkpt>
      <trkpt lat="46.7725" lon="-2.01068">
        <ele>11</ele>
        <time>2018-03-21T02:14:17Z</time>
      </trkpt>
      <trkpt lat="46.7725" lon="-2.01068">
        <ele>11</ele>
        <time>2018-03-21T02:15:17Z</time>
      </trkpt>
      <trkpt lat="46.77248" lon="-2.01072">
        <ele>12</ele>
        <time>2018-03-21T02:16:17Z</time>
      </trkpt>
      <trkpt lat="46.77314" lon="-2.01114">
        <ele>12</ele>
        <time>2018-03-21T02:17:17Z</time>
      </trkpt>
      <trkpt lat="46.77507" lon="-2.01185">
        <ele>12</ele>
        <time>2018-03-21T02:18:17Z</time>
      </trkpt>
      <trkpt lat="46.77585" lon="-2.01256">
        <ele>8</ele>
        <time>2018-03-21T02:19:17Z</time>
      </trkpt>
      <trkpt lat="46.77834" lon="-2.01568">
        <ele>8</ele>
        <time>2018-03-21T02:20:17Z</time>
      </trkpt>
      <trkpt lat="46.77893" lon="-2.01611">
        <ele>8</ele>
        <time>2018-03-21T02:21:17Z</time>
      </trkpt>
      <trkpt lat="46.7798" lon="-2.01652">
        <ele>8</ele>
        <time>2018-03-21T02:22:17Z</time>
      </trkpt>
      <trkpt lat="46.7798" lon="-2.01652">
        <ele>8</ele>
        <time>2018-03-21T02:23:17Z</time>
      </trkpt>
      <trkpt lat="46.7808" lon="-2.01699">
        <ele>5</ele>
        <time>2018-03-21T02:24:17Z</time>
      </trkpt>
      <trkpt lat="46.78099" lon="-2.01702">
        <ele>5</ele>
        <time>2018-03-21T02:25:17Z</time>
      </trkpt>
      <trkpt lat="46.78099" lon="-2.01648">
        <ele>5</ele>
        <time>2018-03-21T02:26:17Z</time>
      </trkpt>
      <trkpt lat="46.78102" lon="-2.01618">
        <ele>4</ele>
        <time>2018-03-21T02:27:17Z</time>
      </trkpt>
      <trkpt lat="46.78112" lon="-2.01595">
        <ele>4</ele>
        <time>2018-03-21T02:28:17Z</time>
      </trkpt>
      <trkpt lat="46.78107" lon="-2.01582">
        <ele>4</ele>
        <time>2018-03-21T02:29:17Z</time>
      </trkpt>
      <trkpt lat="46.78121" lon="-2.01566">
        <ele>4</ele>
        <time>2018-03-21T02:30:17Z</time>
      </trkpt>
      <trkpt lat="46.78179" lon="-2.01489">
        <ele>2</ele>
        <time>2018-03-21T02:31:17Z</time>
      </trkpt>
      <trkpt lat="46.78181" lon="-2.01412">
        <ele>2</ele>
        <time>2018-03-21T02:32:17Z</time>
      </trkpt>
      <trkpt lat="46.78188" lon="-2.01347">
        <ele>2</ele>
        <time>2018-03-21T02:33:17Z</time>
      </trkpt>
      <trkpt lat="46.78209" lon="-2.01273">
        <ele>1</ele>
        <time>2018-03-21T02:34:17Z</time>
      </trkpt>
      <trkpt lat="46.78248" lon="-2.01184">
        <ele>1</ele>
        <time>2018-03-21T02:35:17Z</time>
      </trkpt>
      <trkpt lat="46.78303" lon="-2.01094">
        <ele>1</ele>
        <time>2018-03-21T02:36:17Z</time>
      </trkpt>
      <trkpt lat="46.78321" lon="-2.01073">
        <ele>1</ele>
        <time>2018-03-21T02:37:17Z</time>
      </trkpt>
      <trkpt lat="46.78366" lon="-2.0103">
        <ele>1</ele>
        <time>2018-03-21T02:38:17Z</time>
      </trkpt>
      <trkpt lat="46.78424" lon="-2.01009">
        <ele>1</ele>
        <time>2018-03-21T02:39:17Z</time>
      </trkpt>
      <trkpt lat="46.78451" lon="-2.01011">
        <ele>1</ele>
        <time>2018-03-21T02:40:17Z</time>
      </trkpt>
      <trkpt lat="46.78465" lon="-2.01027">
        <ele>1</ele>
        <time>2018-03-21T02:41:17Z</time>
      </trkpt>
      <trkpt lat="46.78492" lon="-2.01045">
        <ele>1</ele>
        <time>2018-03-21T02:42:17Z</time>
      </trkpt>
      <trkpt lat="46.78523" lon="-2.01061">
        <ele>1</ele>
        <time>2018-03-21T02:43:17Z</time>
      </trkpt>
      <trkpt lat="46.78559" lon="-2.01074">
        <ele>1</ele>
        <time>2018-03-21T02:44:17Z</time>
      </trkpt>
      <trkpt lat="46.78571" lon="-2.01083">
        <ele>1</ele>
        <time>2018-03-21T02:45:17Z</time>
      </trkpt>
      <trkpt lat="46.78588" lon="-2.01103">
        <ele>1</ele>
        <time>2018-03-21T02:46:17Z</time>
      </trkpt>
      <trkpt lat="46.78652" lon="-2.01142">
        <ele>1</ele>
        <time>2018-03-21T02:47:17Z</time>
      </trkpt>
      <trkpt lat="46.787" lon="-2.01153">
        <ele>2</ele>
        <time>2018-03-21T02:48:17Z</time>
      </trkpt>
      <trkpt lat="46.78748" lon="-2.01187">
        <ele>1.3</ele>
        <time>2018-03-21T02:49:17Z</time>
      </trkpt>
      <trkpt lat="46.78838" lon="-2.01074">
        <ele>2</ele>
        <time>2018-03-21T02:50:17Z</time>
      </trkpt>
      <trkpt lat="46.78857" lon="-2.01058">
        <ele>2</ele>
        <time>2018-03-21T02:51:17Z</time>
      </trkpt>
      <trkpt lat="46.78921" lon="-2.01021">
        <ele>2</ele>
        <time>2018-03-21T02:52:17Z</time>
      </trkpt>
      <trkpt lat="46.78944" lon="-2.00999">
        <ele>2</ele>
        <time>2018-03-21T02:53:17Z</time>
      </trkpt>
      <trkpt lat="46.79012" lon="-2.00966">
        <ele>2</ele>
        <time>2018-03-21T02:54:17Z</time>
      </trkpt>
      <trkpt lat="46.79016" lon="-2.00961">
        <ele>2</ele>
        <time>2018-03-21T02:55:17Z</time>
      </trkpt>
      <trkpt lat="46.79054" lon="-2.00866">
        <ele>1</ele>
        <time>2018-03-21T02:56:17Z</time>
      </trkpt>
      <trkpt lat="46.79097" lon="-2.00816">
        <ele>1</ele>
        <time>2018-03-21T02:57:17Z</time>
      </trkpt>
      <trkpt lat="46.79138" lon="-2.00765">
        <ele>1</ele>
        <time>2018-03-21T02:58:17Z</time>
      </trkpt>
      <trkpt lat="46.79181" lon="-2.00718">
        <ele>1</ele>
        <time>2018-03-21T02:59:17Z</time>
      </trkpt>
      <trkpt lat="46.79181" lon="-2.00718">
        <ele>1</ele>
        <time>2018-03-21T03:00:17Z</time>
      </trkpt>
      <trkpt lat="46.79231" lon="-2.00666">
        <ele>1</ele>
        <time>2018-03-21T03:01:17Z</time>
      </trkpt>
      <trkpt lat="46.7926" lon="-2.00638">
        <ele>1</ele>
        <time>2018-03-21T03:02:17Z</time>
      </trkpt>
      <trkpt lat="46.79282" lon="-2.00624">
        <ele>1</ele>
        <time>2018-03-21T03:03:17Z</time>
      </trkpt>
      <trkpt lat="46.79293" lon="-2.00673">
        <ele>2</ele>
        <time>2018-03-21T03:04:17Z</time>
      </trkpt>
      <trkpt lat="46.79307" lon="-2.00703">
        <ele>2</ele>
        <time>2018-03-21T03:05:17Z</time>
      </trkpt>
      <trkpt lat="46.79348" lon="-2.00762">
        <ele>2</ele>
        <time>2018-03-21T03:06:17Z</time>
      </trkpt>
      <trkpt lat="46.7943" lon="-2.00851">
        <ele>2</ele>
        <time>2018-03-21T03:07:17Z</time>
      </trkpt>
      <trkpt lat="46.79482" lon="-2.00921">
        <ele>2</ele>
        <time>2018-03-21T03:08:17Z</time>
      </trkpt>
      <trkpt lat="46.7951" lon="-2.00965">
        <ele>1</ele>
        <time>2018-03-21T03:09:17Z</time>
      </trkpt>
      <trkpt lat="46.79531" lon="-2.01004">
        <ele>1</ele>
        <time>2018-03-21T03:10:17Z</time>
      </trkpt>
      <trkpt lat="46.7955" lon="-2.01051">
        <ele>1</ele>
        <time>2018-03-21T03:11:17Z</time>
      </trkpt>
      <trkpt lat="46.7956" lon="-2.01063">
        <ele>1</ele>
        <time>2018-03-21T03:12:17Z</time>
      </trkpt>
      <trkpt lat="46.79577" lon="-2.01059">
        <ele>1</ele>
        <time>2018-03-21T03:13:17Z</time>
      </trkpt>
      <trkpt lat="46.79584" lon="-2.01042">
        <ele>1</ele>
        <time>2018-03-21T03:14:17Z</time>
      </trkpt>
      <trkpt lat="46.79593" lon="-2.01035">
        <ele>1</ele>
        <time>2018-03-21T03:15:17Z</time>
      </trkpt>
      <trkpt lat="46.79601" lon="-2.01037">
        <ele>1</ele>
        <time>2018-03-21T03:16:17Z</time>
      </trkpt>
      <trkpt lat="46.79609" lon="-2.01045">
        <ele>1</ele>
        <time>2018-03-21T03:17:17Z</time>
      </trkpt>
      <trkpt lat="46.79632" lon="-2.01051">
        <ele>1</ele>
        <time>2018-03-21T03:18:17Z</time>
      </trkpt>
      <trkpt lat="46.79695" lon="-2.01002">
        <ele>2</ele>
        <time>2018-03-21T03:19:17Z</time>
      </trkpt>
      <trkpt lat="46.79721" lon="-2.00977">
        <ele>1</ele>
        <time>2018-03-21T03:20:17Z</time>
      </trkpt>
      <trkpt lat="46.79735" lon="-2.0095">
        <ele>1</ele>
        <time>2018-03-21T03:21:17Z</time>
      </trkpt>
      <trkpt lat="46.79763" lon="-2.00919">
        <ele>2</ele>
        <time>2018-03-21T03:22:17Z</time>
      </trkpt>
      <trkpt lat="46.79794" lon="-2.00882">
        <ele>1</ele>
        <time>2018-03-21T03:23:17Z</time>
      </trkpt>
      <trkpt lat="46.79808" lon="-2.00869">
        <ele>1</ele>
        <time>2018-03-21T03:24:17Z</time>
      </trkpt>
      <trkpt lat="46.79808" lon="-2.00869">
        <ele>1</ele>
        <time>2018-03-21T03:25:17Z</time>
      </trkpt>
      <trkpt lat="46.79902" lon="-2.00782">
        <ele>1</ele>
        <time>2018-03-21T03:26:17Z</time>
      </trkpt>
      <trkpt lat="46.79957" lon="-2.00737">
        <ele>1</ele>
        <time>2018-03-21T03:27:17Z</time>
      </trkpt>
      <trkpt lat="46.80061" lon="-2.00633">
        <ele>1</ele>
        <time>2018-03-21T03:28:17Z</time>
      </trkpt>
      <trkpt lat="46.80207" lon="-2.0047">
        <ele>2</ele>
        <time>2018-03-21T03:29:17Z</time>
      </trkpt>
      <trkpt lat="46.80277" lon="-2.00396">
        <ele>3</ele>
        <time>2018-03-21T03:30:17Z</time>
      </trkpt>
      <trkpt lat="46.80408" lon="-2.00266">
        <ele>2</ele>
        <time>2018-03-21T03:31:17Z</time>
      </trkpt>
      <trkpt lat="46.80889" lon="-1.99771">
        <ele>1</ele>
        <time>2018-03-21T03:32:17Z</time>
      </trkpt>
      <trkpt lat="46.8102" lon="-1.99642">
        <ele>1</ele>
        <time>2018-03-21T03:33:17Z</time>
      </trkpt>
      <trkpt lat="46.81296" lon="-1.9936">
        <ele>1.6</ele>
        <time>2018-03-21T03:34:17Z</time>
      </trkpt>
      <trkpt lat="46.81387" lon="-1.99263">
        <ele>1</ele>
        <time>2018-03-21T03:35:17Z</time>
      </trkpt>
      <trkpt lat="46.81446" lon="-1.99202">
        <ele>1</ele>
        <time>2018-03-21T03:36:17Z</time>
      </trkpt>
      <trkpt lat="46.81446" lon="-1.99202">
        <ele>1</ele>
        <time>2018-03-21T03:37:17Z</time>
      </trkpt>
      <trkpt lat="46.81529" lon="-1.99117">
        <ele>2</ele>
        <time>2018-03-21T03:38:17Z</time>
      </trkpt>
      <trkpt lat="46.81591" lon="-1.99177">
        <ele>1</ele>
        <time>2018-03-21T03:39:17Z</time>
      </trkpt>
      <trkpt lat="46.81621" lon="-1.99202">
        <ele>2</ele>
        <time>2018-03-21T03:40:17Z</time>
      </trkpt>
      <trkpt lat="46.81657" lon="-1.99222">
        <ele>2</ele>
        <time>2018-03-21T03:41:17Z</time>
      </trkpt>
      <trkpt lat="46.81714" lon="-1.9924">
        <ele>1</ele>
        <time>2018-03-21T03:42:17Z</time>
      </trkpt>
      <trkpt lat="46.81867" lon="-1.99279">
        <ele>2</ele>
        <time>2018-03-21T03:43:17Z</time>
      </trkpt>
      <trkpt lat="46.81899" lon="-1.99283">
        <ele>2</ele>
        <time>2018-03-21T03:44:17Z</time>
      </trkpt>
      <trkpt lat="46.81906" lon="-1.99281">
        <ele>2</ele>
        <time>2018-03-21T03:45:17Z</time>
      </trkpt>
      <trkpt lat="46.81927" lon="-1.99305">
        <ele>2</ele>
        <time>2018-03-21T03:46:17Z</time>
      </trkpt>
      <trkpt lat="46.81957" lon="-1.9932">
        <ele>2</ele>
        <time>2018-03-21T03:47:17Z</time>
      </trkpt>
      <trkpt lat="46.82" lon="-1.99339">
        <ele>2</ele>
        <time>2018-03-21T03:48:17Z</time>
      </trkpt>
      <trkpt lat="46.8212" lon="-1.99381">
        <ele>1</ele>
        <time>2018-03-21T03:49:17Z</time>
      </trkpt>
      <trkpt lat="46.82181" lon="-1.99421">
        <ele>1</ele>
        <time>2018-03-21T03:50:17Z</time>
      </trkpt>
      <trkpt lat="46.8225" lon="-1.99473">
        <ele>2</ele>
        <time>2018-03-21T03:51:17Z</time>
      </trkpt>
      <trkpt lat="46.82315" lon="-1.99518">
        <ele>2</ele>
        <time>2018-03-21T03:52:17Z</time>
      </trkpt>
      <trkpt lat="46.82338" lon="-1.99531">
        <ele>1</ele>
        <time>2018-03-21T03:53:17Z</time>
      </trkpt>
      <trkpt lat="46.82367" lon="-1.99547">
        <ele>1</ele>
        <time>2018-03-21T03:54:17Z</time>
      </trkpt>
      <trkpt lat="46.82426" lon="-1.99562">
        <ele>2</ele>
        <time>2018-03-21T03:55:17Z</time>
      </trkpt>
      <trkpt lat="46.82432" lon="-1.99558">
        <ele>2</ele>
        <time>2018-03-21T03:56:17Z</time>
      </trkpt>
      <trkpt lat="46.82437" lon="-1.99549">
        <ele>1</ele>
        <time>2018-03-21T03:57:17Z</time>
      </trkpt>
      <trkpt lat="46.82451" lon="-1.9952">
        <ele>1</ele>
        <time>2018-03-21T03:58:17Z</time>
      </trkpt>
      <trkpt lat="46.82469" lon="-1.99494">
        <ele>2</ele>
        <time>2018-03-21T03:59:17Z</time>
      </trkpt>
      <trkpt lat="46.82481" lon="-1.99489">
        <ele>2</ele>
        <time>2018-03-21T04:00:17Z</time>
      </trkpt>
      <trkpt lat="46.82487" lon="-1.99484">
        <ele>1</ele>
        <time>2018-03-21T04:01:17Z</time>
      </trkpt>
      <trkpt lat="46.82501" lon="-1.9948">
        <ele>2</ele>
        <time>2018-03-21T04:02:17Z</time>
      </trkpt>
      <trkpt lat="46.82511" lon="-1.99479">
        <ele>2</ele>
        <time>2018-03-21T04:03:17Z</time>
      </trkpt>
      <trkpt lat="46.82523" lon="-1.99482">
        <ele>2</ele>
        <time>2018-03-21T04:04:17Z</time>
      </trkpt>
      <trkpt lat="46.826" lon="-1.99502">
        <ele>2</ele>
        <time>2018-03-21T04:05:17Z</time>
      </trkpt>
      <trkpt lat="46.82618" lon="-1.99503">
        <ele>2</ele>
        <time>2018-03-21T04:06:17Z</time>
      </trkpt>
      <trkpt lat="46.82638" lon="-1.99501">
        <ele>2</ele>
        <time>2018-03-21T04:07:17Z</time>
      </trkpt>
      <trkpt lat="46.82785" lon="-1.99468">
        <ele>2.2</ele>
        <time>2018-03-21T04:08:17Z</time>
      </trkpt>
      <trkpt lat="46.82823" lon="-1.99461">
        <ele>2.2</ele>
        <time>2018-03-21T04:09:17Z</time>
      </trkpt>
      <trkpt lat="46.82889" lon="-1.99468">
        <ele>2</ele>
        <time>2018-03-21T04:10:17Z</time>
      </trkpt>
      <trkpt lat="46.82908" lon="-1.99464">
        <ele>2</ele>
        <time>2018-03-21T04:11:17Z</time>
      </trkpt>
      <trkpt lat="46.82925" lon="-1.99455">
        <ele>1</ele>
        <time>2018-03-21T04:12:17Z</time>
      </trkpt>
      <trkpt lat="46.82977" lon="-1.99402">
        <ele>1</ele>
        <time>2018-03-21T04:13:17Z</time>
      </trkpt>
      <trkpt lat="46.83049" lon="-1.99324">
        <ele>1</ele>
        <time>2018-03-21T04:14:17Z</time>
      </trkpt>
      <trkpt lat="46.83079" lon="-1.99295">
        <ele>1</ele>
        <time>2018-03-21T04:15:17Z</time>
      </trkpt>
      <trkpt lat="46.83104" lon="-1.9928">
        <ele>1</ele>
        <time>2018-03-21T04:16:17Z</time>
      </trkpt>
      <trkpt lat="46.83134" lon="-1.9927">
        <ele>1</ele>
        <time>2018-03-21T04:17:17Z</time>
      </trkpt>
      <trkpt lat="46.83195" lon="-1.99257">
        <ele>1</ele>
        <time>2018-03-21T04:18:17Z</time>
      </trkpt>
      <trkpt lat="46.8332" lon="-1.99218">
        <ele>1</ele>
        <time>2018-03-21T04:19:17Z</time>
      </trkpt>
      <trkpt lat="46.83351" lon="-1.99204">
        <ele>1</ele>
        <time>2018-03-21T04:20:17Z</time>
      </trkpt>
      <trkpt lat="46.83469" lon="-1.99128">
        <ele>1</ele>
        <time>2018-03-21T04:21:17Z</time>
      </trkpt>
      <trkpt lat="46.83553" lon="-1.99083">
        <ele>2</ele>
        <time>2018-03-21T04:22:17Z</time>
      </trkpt>
      <trkpt lat="46.83716" lon="-1.99002">
        <ele>2</ele>
        <time>2018-03-21T04:23:17Z</time>
      </trkpt>
      <trkpt lat="46.83955" lon="-1.98897">
        <ele>1.6</ele>
        <time>2018-03-21T04:24:17Z</time>
      </trkpt>
      <trkpt lat="46.84002" lon="-1.98871">
        <ele>1</ele>
        <time>2018-03-21T04:25:17Z</time>
      </trkpt>
      <trkpt lat="46.84072" lon="-1.98842">
        <ele>1</ele>
        <time>2018-03-21T04:26:17Z</time>
      </trkpt>
      <trkpt lat="46.84146" lon="-1.98816">
        <ele>1</ele>
        <time>2018-03-21T04:27:17Z</time>
      </trkpt>
      <trkpt lat="46.84308" lon="-1.9878">
        <ele>1</ele>
        <time>2018-03-21T04:28:17Z</time>
      </trkpt>
      <trkpt lat="46.84335" lon="-1.98771">
        <ele>1</ele>
        <time>2018-03-21T04:29:17Z</time>
      </trkpt>
      <trkpt lat="46.84426" lon="-1.98723">
        <ele>1</ele>
        <time>2018-03-21T04:30:17Z</time>
      </trkpt>
      <trkpt lat="46.84445" lon="-1.98704">
        <ele>1</ele>
        <time>2018-03-21T04:31:17Z</time>
      </trkpt>
      <trkpt lat="46.84458" lon="-1.98685">
        <ele>1</ele>
        <time>2018-03-21T04:32:17Z</time>
      </trkpt>
      <trkpt lat="46.8451" lon="-1.98572">
        <ele>2</ele>
        <time>2018-03-21T04:33:17Z</time>
      </trkpt>
      <trkpt lat="46.84545" lon="-1.98489">
        <ele>1</ele>
        <time>2018-03-21T04:34:17Z</time>
      </trkpt>
      <trkpt lat="46.84549" lon="-1.98474">
        <ele>1</ele>
        <time>2018-03-21T04:35:17Z</time>
      </trkpt>
      <trkpt lat="46.84551" lon="-1.98451">
        <ele>1</ele>
        <time>2018-03-21T04:36:17Z</time>
      </trkpt>
      <trkpt lat="46.84552" lon="-1.98391">
        <ele>1</ele>
        <time>2018-03-21T04:37:17Z</time>
      </trkpt>
      <trkpt lat="46.84556" lon="-1.98365">
        <ele>1</ele>
        <time>2018-03-21T04:38:17Z</time>
      </trkpt>
      <trkpt lat="46.84564" lon="-1.98339">
        <ele>2</ele>
        <time>2018-03-21T04:39:17Z</time>
      </trkpt>
      <trkpt lat="46.84598" lon="-1.98268">
        <ele>1</ele>
        <time>2018-03-21T04:40:17Z</time>
      </trkpt>
      <trkpt lat="46.8461" lon="-1.98251">
        <ele>1</ele>
        <time>2018-03-21T04:41:17Z</time>
      </trkpt>
      <trkpt lat="46.84635" lon="-1.98221">
        <ele>1</ele>
        <time>2018-03-21T04:42:17Z</time>
      </trkpt>
      <trkpt lat="46.84641" lon="-1.98209">
        <ele>1</ele>
        <time>2018-03-21T04:43:17Z</time>
      </trkpt>
      <trkpt lat="46.84656" lon="-1.98169">
        <ele>1.4</ele>
        <time>2018-03-21T04:44:17Z</time>
      </trkpt>
      <trkpt lat="46.84665" lon="-1.98148">
        <ele>1.7</ele>
        <time>2018-03-21T04:45:17Z</time>
      </trkpt>
      <trkpt lat="46.84674" lon="-1.98133">
        <ele>1.8</ele>
        <time>2018-03-21T04:46:17Z</time>
      </trkpt>
      <trkpt lat="46.84682" lon="-1.98123">
        <ele>1.8</ele>
        <time>2018-03-21T04:47:17Z</time>
      </trkpt>
      <trkpt lat="46.84719" lon="-1.98099">
        <ele>2</ele>
        <time>2018-03-21T04:48:17Z</time>
      </trkpt>
      <trkpt lat="46.84745" lon="-1.98073">
        <ele>1.7</ele>
        <time>2018-03-21T04:49:17Z</time>
      </trkpt>
      <trkpt lat="46.84776" lon="-1.9803">
        <ele>1.9</ele>
        <time>2018-03-21T04:50:17Z</time>
      </trkpt>
      <trkpt lat="46.84835" lon="-1.97938">
        <ele>2</ele>
        <time>2018-03-21T04:51:17Z</time>
      </trkpt>
      <trkpt lat="46.84948" lon="-1.97777">
        <ele>2</ele>
        <time>2018-03-21T04:52:17Z</time>
      </trkpt>
      <trkpt lat="46.84978" lon="-1.97748">
        <ele>1</ele>
        <time>2018-03-21T04:53:17Z</time>
      </trkpt>
      <trkpt lat="46.85207" lon="-1.97558">
        <ele>1</ele>
        <time>2018-03-21T04:54:17Z</time>
      </trkpt>
      <trkpt lat="46.85224" lon="-1.9754">
        <ele>1</ele>
        <time>2018-03-21T04:55:17Z</time>
      </trkpt>
      <trkpt lat="46.8527" lon="-1.97471">
        <ele>1</ele>
        <time>2018-03-21T04:56:17Z</time>
      </trkpt>
      <trkpt lat="46.85282" lon="-1.97457">
        <ele>1</ele>
        <time>2018-03-21T04:57:17Z</time>
      </trkpt>
      <trkpt lat="46.85294" lon="-1.9745">
        <ele>1</ele>
        <time>2018-03-21T04:58:17Z</time>
      </trkpt>
      <trkpt lat="46.85377" lon="-1.97421">
        <ele>1</ele>
        <time>2018-03-21T04:59:17Z</time>
      </trkpt>
      <trkpt lat="46.85391" lon="-1.97411">
        <ele>1</ele>
        <time>2018-03-21T05:00:17Z</time>
      </trkpt>
      <trkpt lat="46.85416" lon="-1.97386">
        <ele>1</ele>
        <time>2018-03-21T05:01:17Z</time>
      </trkpt>
      <trkpt lat="46.85431" lon="-1.97361">
        <ele>1</ele>
        <time>2018-03-21T05:02:17Z</time>
      </trkpt>
      <trkpt lat="46.85444" lon="-1.97329">
        <ele>1</ele>
        <time>2018-03-21T05:03:17Z</time>
      </trkpt>
      <trkpt lat="46.85481" lon="-1.97205">
        <ele>3</ele>
        <time>2018-03-21T05:04:17Z</time>
      </trkpt>
      <trkpt lat="46.85538" lon="-1.9704">
        <ele>1</ele>
        <time>2018-03-21T05:05:17Z</time>
      </trkpt>
      <trkpt lat="46.8554" lon="-1.97019">
        <ele>1</ele>
        <time>2018-03-21T05:06:17Z</time>
      </trkpt>
      <trkpt lat="46.85539" lon="-1.96997">
        <ele>1</ele>
        <time>2018-03-21T05:07:17Z</time>
      </trkpt>
      <trkpt lat="46.85525" lon="-1.96876">
        <ele>1</ele>
        <time>2018-03-21T05:08:17Z</time>
      </trkpt>
      <trkpt lat="46.85519" lon="-1.9685">
        <ele>2</ele>
        <time>2018-03-21T05:09:17Z</time>
      </trkpt>
      <trkpt lat="46.85505" lon="-1.9681">
        <ele>2</ele>
        <time>2018-03-21T05:10:17Z</time>
      </trkpt>
      <trkpt lat="46.85499" lon="-1.96787">
        <ele>1</ele>
        <time>2018-03-21T05:11:17Z</time>
      </trkpt>
      <trkpt lat="46.85496" lon="-1.9676">
        <ele>1</ele>
        <time>2018-03-21T05:12:17Z</time>
      </trkpt>
      <trkpt lat="46.85495" lon="-1.96733">
        <ele>1</ele>
        <time>2018-03-21T05:13:17Z</time>
      </trkpt>
      <trkpt lat="46.85498" lon="-1.96712">
        <ele>1</ele>
        <time>2018-03-21T05:14:17Z</time>
      </trkpt>
      <trkpt lat="46.85505" lon="-1.9669">
        <ele>2</ele>
        <time>2018-03-21T05:15:17Z</time>
      </trkpt>
      <trkpt lat="46.85542" lon="-1.9658">
        <ele>1.6</ele>
        <time>2018-03-21T05:16:17Z</time>
      </trkpt>
      <trkpt lat="46.85553" lon="-1.96558">
        <ele>2</ele>
        <time>2018-03-21T05:17:17Z</time>
      </trkpt>
      <trkpt lat="46.85563" lon="-1.96545">
        <ele>2</ele>
        <time>2018-03-21T05:18:17Z</time>
      </trkpt>
      <trkpt lat="46.85577" lon="-1.96533">
        <ele>2</ele>
        <time>2018-03-21T05:19:17Z</time>
      </trkpt>
      <trkpt lat="46.85606" lon="-1.96518">
        <ele>1.5</ele>
        <time>2018-03-21T05:20:17Z</time>
      </trkpt>
      <trkpt lat="46.85615" lon="-1.96508">
        <ele>1.7</ele>
        <time>2018-03-21T05:21:17Z</time>
      </trkpt>
      <trkpt lat="46.85622" lon="-1.96489">
        <ele>1.8</ele>
        <time>2018-03-21T05:22:17Z</time>
      </trkpt>
      <trkpt lat="46.85624" lon="-1.96469">
        <ele>1.5</ele>
        <time>2018-03-21T05:23:17Z</time>
      </trkpt>
      <trkpt lat="46.85624" lon="-1.96429">
        <ele>1.5</ele>
        <time>2018-03-21T05:24:17Z</time>
      </trkpt>
      <trkpt lat="46.85626" lon="-1.96412">
        <ele>1.6</ele>
        <time>2018-03-21T05:25:17Z</time>
      </trkpt>
      <trkpt lat="46.85632" lon="-1.96392">
        <ele>1.9</ele>
        <time>2018-03-21T05:26:17Z</time>
      </trkpt>
      <trkpt lat="46.85645" lon="-1.96365">
        <ele>1.8</ele>
        <time>2018-03-21T05:27:17Z</time>
      </trkpt>
      <trkpt lat="46.85669" lon="-1.96332">
        <ele>2</ele>
        <time>2018-03-21T05:28:17Z</time>
      </trkpt>
      <trkpt lat="46.85678" lon="-1.96322">
        <ele>2</ele>
        <time>2018-03-21T05:29:17Z</time>
      </trkpt>
      <trkpt lat="46.85712" lon="-1.96293">
        <ele>1.7</ele>
        <time>2018-03-21T05:30:17Z</time>
      </trkpt>
      <trkpt lat="46.85721" lon="-1.96281">
        <ele>1.9</ele>
        <time>2018-03-21T05:31:17Z</time>
      </trkpt>
      <trkpt lat="46.85751" lon="-1.96202">
        <ele>1</ele>
        <time>2018-03-21T05:32:17Z</time>
      </trkpt>
      <trkpt lat="46.85788" lon="-1.96125">
        <ele>2</ele>
        <time>2018-03-21T05:33:17Z</time>
      </trkpt>
      <trkpt lat="46.85788" lon="-1.96125">
        <ele>2</ele>
        <time>2018-03-21T05:34:17Z</time>
      </trkpt>
      <trkpt lat="46.85835" lon="-1.9603">
        <ele>2</ele>
        <time>2018-03-21T05:35:17Z</time>
      </trkpt>
      <trkpt lat="46.85936" lon="-1.95886">
        <ele>4</ele>
        <time>2018-03-21T05:36:17Z</time>
      </trkpt>
      <trkpt lat="46.85942" lon="-1.95874">
        <ele>4</ele>
        <time>2018-03-21T05:37:17Z</time>
      </trkpt>
      <trkpt lat="46.85958" lon="-1.95859">
        <ele>4</ele>
        <time>2018-03-21T05:38:17Z</time>
      </trkpt>
      <trkpt lat="46.85964" lon="-1.95849">
        <ele>4</ele>
        <time>2018-03-21T05:39:17Z</time>
      </trkpt>
      <trkpt lat="46.8597" lon="-1.95832">
        <ele>4</ele>
        <time>2018-03-21T05:40:17Z</time>
      </trkpt>
      <trkpt lat="46.85994" lon="-1.95782">
        <ele>4</ele>
        <time>2018-03-21T05:41:17Z</time>
      </trkpt>
      <trkpt lat="46.8601" lon="-1.95754">
        <ele>4</ele>
        <time>2018-03-21T05:42:17Z</time>
      </trkpt>
      <trkpt lat="46.86043" lon="-1.95712">
        <ele>4</ele>
        <time>2018-03-21T05:43:17Z</time>
      </trkpt>
      <trkpt lat="46.86056" lon="-1.95688">
        <ele>4</ele>
        <time>2018-03-21T05:44:17Z</time>
      </trkpt>
      <trkpt lat="46.8606" lon="-1.95656">
        <ele>4</ele>
        <time>2018-03-21T05:45:17Z</time>
      </trkpt>
      <trkpt lat="46.8606" lon="-1.95638">
        <ele>4</ele>
        <time>2018-03-21T05:46:17Z</time>
      </trkpt>
      <trkpt lat="46.86047" lon="-1.95517">
        <ele>4</ele>
        <time>2018-03-21T05:47:17Z</time>
      </trkpt>
      <trkpt lat="46.86041" lon="-1.95337">
        <ele>4</ele>
        <time>2018-03-21T05:48:17Z</time>
      </trkpt>
      <trkpt lat="46.8604" lon="-1.9523">
        <ele>5</ele>
        <time>2018-03-21T05:49:17Z</time>
      </trkpt>
      <trkpt lat="46.86044" lon="-1.95177">
        <ele>4</ele>
        <time>2018-03-21T05:50:17Z</time>
      </trkpt>
      <trkpt lat="46.86047" lon="-1.95167">
        <ele>4</ele>
        <time>2018-03-21T05:51:17Z</time>
      </trkpt>
      <trkpt lat="46.86045" lon="-1.9516">
        <ele>4</ele>
        <time>2018-03-21T05:52:17Z</time>
      </trkpt>
      <trkpt lat="46.86046" lon="-1.95156">
        <ele>4</ele>
        <time>2018-03-21T05:53:17Z</time>
      </trkpt>
      <trkpt lat="46.8605" lon="-1.9515">
        <ele>4</ele>
        <time>2018-03-21T05:54:17Z</time>
      </trkpt>
      <trkpt lat="46.86056" lon="-1.95149">
        <ele>4</ele>
        <time>2018-03-21T05:55:17Z</time>
      </trkpt>
      <trkpt lat="46.8606" lon="-1.95154">
        <ele>4</ele>
        <time>2018-03-21T05:56:17Z</time>
      </trkpt>
      <trkpt lat="46.86079" lon="-1.95162">
        <ele>3</ele>
        <time>2018-03-21T05:57:17Z</time>
      </trkpt>
      <trkpt lat="46.8608" lon="-1.95164">
        <ele>3</ele>
        <time>2018-03-21T05:58:17Z</time>
      </trkpt>
      <trkpt lat="46.86094" lon="-1.95163">
        <ele>3</ele>
        <time>2018-03-21T05:59:17Z</time>
      </trkpt>
      <trkpt lat="46.86151" lon="-1.95171">
        <ele>1</ele>
        <time>2018-03-21T06:00:17Z</time>
      </trkpt>
      <trkpt lat="46.86184" lon="-1.95169">
        <ele>1</ele>
        <time>2018-03-21T06:01:17Z</time>
      </trkpt>
      <trkpt lat="46.86352" lon="-1.95146">
        <ele>3</ele>
        <time>2018-03-21T06:02:17Z</time>
      </trkpt>
      <trkpt lat="46.86386" lon="-1.95136">
        <ele>2</ele>
        <time>2018-03-21T06:03:17Z</time>
      </trkpt>
      <trkpt lat="46.86489" lon="-1.95083">
        <ele>3</ele>
        <time>2018-03-21T06:04:17Z</time>
      </trkpt>
      <trkpt lat="46.86495" lon="-1.95075">
        <ele>3</ele>
        <time>2018-03-21T06:05:17Z</time>
      </trkpt>
      <trkpt lat="46.86515" lon="-1.9506">
        <ele>3</ele>
        <time>2018-03-21T06:06:17Z</time>
      </trkpt>
      <trkpt lat="46.8652" lon="-1.95058">
        <ele>3</ele>
        <time>2018-03-21T06:07:17Z</time>
      </trkpt>
      <trkpt lat="46.86524" lon="-1.9505">
        <ele>3</ele>
        <time>2018-03-21T06:08:17Z</time>
      </trkpt>
      <trkpt lat="46.86527" lon="-1.95047">
        <ele>3</ele>
        <time>2018-03-21T06:09:17Z</time>
      </trkpt>
      <trkpt lat="46.86536" lon="-1.95018">
        <ele>3</ele>
        <time>2018-03-21T06:10:17Z</time>
      </trkpt>
      <trkpt lat="46.8656" lon="-1.94975">
        <ele>3</ele>
        <time>2018-03-21T06:11:17Z</time>
      </trkpt>
      <trkpt lat="46.86564" lon="-1.9497">
        <ele>3</ele>
        <time>2018-03-21T06:12:17Z</time>
      </trkpt>
      <trkpt lat="46.86567" lon="-1.94961">
        <ele>3</ele>
        <time>2018-03-21T06:13:17Z</time>
      </trkpt>
      <trkpt lat="46.86599" lon="-1.94833">
        <ele>4</ele>
        <time>2018-03-21T06:14:17Z</time>
      </trkpt>
      <trkpt lat="46.86615" lon="-1.94743">
        <ele>5</ele>
        <time>2018-03-21T06:15:17Z</time>
      </trkpt>
      <trkpt lat="46.86744" lon="-1.9406">
        <ele>7</ele>
        <time>2018-03-21T06:16:17Z</time>
      </trkpt>
      <trkpt lat="46.86791" lon="-1.93812">
        <ele>9</ele>
        <time>2018-03-21T06:17:17Z</time>
      </trkpt>
      <trkpt lat="46.86804" lon="-1.93753">
        <ele>9</ele>
        <time>2018-03-21T06:18:17Z</time>
      </trkpt>
      <trkpt lat="46.86824" lon="-1.93683">
        <ele>10</ele>
        <time>2018-03-21T06:19:17Z</time>
      </trkpt>
      <trkpt lat="46.86846" lon="-1.93622">
        <ele>10</ele>
        <time>2018-03-21T06:20:17Z</time>
      </trkpt>
      <trkpt lat="46.8689" lon="-1.93514">
        <ele>10</ele>
        <time>2018-03-21T06:21:17Z</time>
      </trkpt>
      <trkpt lat="46.86891" lon="-1.93509">
        <ele>10</ele>
        <time>2018-03-21T06:22:17Z</time>
      </trkpt>
      <trkpt lat="46.86903" lon="-1.93472">
        <ele>10</ele>
        <time>2018-03-21T06:23:17Z</time>
      </trkpt>
      <trkpt lat="46.86908" lon="-1.93468">
        <ele>10</ele>
        <time>2018-03-21T06:24:17Z</time>
      </trkpt>
      <trkpt lat="46.86901" lon="-1.93452">
        <ele>10</ele>
        <time>2018-03-21T06:25:17Z</time>
      </trkpt>
      <trkpt lat="46.86922" lon="-1.93441">
        <ele>10</ele>
        <time>2018-03-21T06:26:17Z</time>
      </trkpt>
      <trkpt lat="46.86928" lon="-1.93426">
        <ele>10</ele>
        <time>2018-03-21T06:27:17Z</time>
      </trkpt>
      <trkpt lat="46.86939" lon="-1.93388">
        <ele>10</ele>
        <time>2018-03-21T06:28:17Z</time>
      </trkpt>
      <trkpt lat="46.86945" lon="-1.93353">
        <ele>10</ele>
        <time>2018-03-21T06:29:17Z</time>
      </trkpt>
      <trkpt lat="46.86954" lon="-1.9323">
        <ele>10</ele>
        <time>2018-03-21T06:30:17Z</time>
      </trkpt>
      <trkpt lat="46.86967" lon="-1.93161">
        <ele>12</ele>
        <time>2018-03-21T06:31:17Z</time>
      </trkpt>
      <trkpt lat="46.87046" lon="-1.92866">
        <ele>13</ele>
        <time>2018-03-21T06:32:17Z</time>
      </trkpt>
      <trkpt lat="46.87059" lon="-1.92806">
        <ele>12</ele>
        <time>2018-03-21T06:33:17Z</time>
      </trkpt>
      <trkpt lat="46.8707" lon="-1.92738">
        <ele>12</ele>
        <time>2018-03-21T06:34:17Z</time>
      </trkpt>
      <trkpt lat="46.87074" lon="-1.92699">
        <ele>11</ele>
        <time>2018-03-21T06:35:17Z</time>
      </trkpt>
      <trkpt lat="46.87075" lon="-1.92661">
        <ele>11</ele>
        <time>2018-03-21T06:36:17Z</time>
      </trkpt>
      <trkpt lat="46.87072" lon="-1.92517">
        <ele>10</ele>
        <time>2018-03-21T06:37:17Z</time>
      </trkpt>
      <trkpt lat="46.87105" lon="-1.92264">
        <ele>8</ele>
        <time>2018-03-21T06:38:17Z</time>
      </trkpt>
      <trkpt lat="46.87119" lon="-1.92178">
        <ele>10</ele>
        <time>2018-03-21T06:39:17Z</time>
      </trkpt>
      <trkpt lat="46.87139" lon="-1.92092">
        <ele>10</ele>
        <time>2018-03-21T06:40:17Z</time>
      </trkpt>
      <trkpt lat="46.87205" lon="-1.9187">
        <ele>13</ele>
        <time>2018-03-21T06:41:17Z</time>
      </trkpt>
      <trkpt lat="46.87219" lon="-1.91814">
        <ele>14</ele>
        <time>2018-03-21T06:42:17Z</time>
      </trkpt>
      <trkpt lat="46.87242" lon="-1.91755">
        <ele>13</ele>
        <time>2018-03-21T06:43:17Z</time>
      </trkpt>
      <trkpt lat="46.87257" lon="-1.91726">
        <ele>13</ele>
        <time>2018-03-21T06:44:17Z</time>
      </trkpt>
      <trkpt lat="46.87257" lon="-1.91726">
        <ele>13</ele>
        <time>2018-03-21T06:45:17Z</time>
      </trkpt>
      <trkpt lat="46.8731" lon="-1.91622">
        <ele>11</ele>
        <time>2018-03-21T06:46:17Z</time>
      </trkpt>
      <trkpt lat="46.87348" lon="-1.9155">
        <ele>12</ele>
        <time>2018-03-21T06:47:17Z</time>
      </trkpt>
      <trkpt lat="46.87361" lon="-1.91522">
        <ele>13</ele>
        <time>2018-03-21T06:48:17Z</time>
      </trkpt>
      <trkpt lat="46.87368" lon="-1.91498">
        <ele>14</ele>
        <time>2018-03-21T06:49:17Z</time>
      </trkpt>
      <trkpt lat="46.87375" lon="-1.91469">
        <ele>13</ele>
        <time>2018-03-21T06:50:17Z</time>
      </trkpt>
      <trkpt lat="46.87377" lon="-1.91442">
        <ele>13</ele>
        <time>2018-03-21T06:51:17Z</time>
      </trkpt>
      <trkpt lat="46.87371" lon="-1.91334">
        <ele>12</ele>
        <time>2018-03-21T06:52:17Z</time>
      </trkpt>
      <trkpt lat="46.87373" lon="-1.91315">
        <ele>13</ele>
        <time>2018-03-21T06:53:17Z</time>
      </trkpt>
      <trkpt lat="46.87392" lon="-1.91232">
        <ele>15</ele>
        <time>2018-03-21T06:54:17Z</time>
      </trkpt>
      <trkpt lat="46.8751" lon="-1.90907">
        <ele>15</ele>
        <time>2018-03-21T06:55:17Z</time>
      </trkpt>
      <trkpt lat="46.87526" lon="-1.90866">
        <ele>15</ele>
        <time>2018-03-21T06:56:17Z</time>
      </trkpt>
      <trkpt lat="46.87598" lon="-1.90878">
        <ele>14</ele>
        <time>2018-03-21T06:57:17Z</time>
      </trkpt>
      <trkpt lat="46.87624" lon="-1.90889">
        <ele>15</ele>
        <time>2018-03-21T06:58:17Z</time>
      </trkpt>
      <trkpt lat="46.87644" lon="-1.90901">
        <ele>15</ele>
        <time>2018-03-21T06:59:17Z</time>
      </trkpt>
      <trkpt lat="46.87681" lon="-1.90909">
        <ele>16</ele>
        <time>2018-03-21T07:00:17Z</time>
      </trkpt>
      <trkpt lat="46.87738" lon="-1.90918">
        <ele>15</ele>
        <time>2018-03-21T07:01:17Z</time>
      </trkpt>
      <trkpt lat="46.87824" lon="-1.90959">
        <ele>14</ele>
        <time>2018-03-21T07:02:17Z</time>
      </trkpt>
      <trkpt lat="46.87848" lon="-1.90968">
        <ele>14</ele>
        <time>2018-03-21T07:03:17Z</time>
      </trkpt>
      <trkpt lat="46.87869" lon="-1.90969">
        <ele>14</ele>
        <time>2018-03-21T07:04:17Z</time>
      </trkpt>
      <trkpt lat="46.87888" lon="-1.90965">
        <ele>14</ele>
        <time>2018-03-21T07:05:17Z</time>
      </trkpt>
      <trkpt lat="46.87928" lon="-1.90946">
        <ele>14</ele>
        <time>2018-03-21T07:06:17Z</time>
      </trkpt>
      <trkpt lat="46.88029" lon="-1.90937">
        <ele>15</ele>
        <time>2018-03-21T07:07:17Z</time>
      </trkpt>
      <trkpt lat="46.8805" lon="-1.90939">
        <ele>15</ele>
        <time>2018-03-21T07:08:17Z</time>
      </trkpt>
      <trkpt lat="46.88307" lon="-1.9119">
        <ele>15</ele>
        <time>2018-03-21T07:09:17Z</time>
      </trkpt>
      <trkpt lat="46.88324" lon="-1.91199">
        <ele>15</ele>
        <time>2018-03-21T07:10:17Z</time>
      </trkpt>
      <trkpt lat="46.88362" lon="-1.91214">
        <ele>15</ele>
        <time>2018-03-21T07:11:17Z</time>
      </trkpt>
      <trkpt lat="46.88399" lon="-1.91225">
        <ele>15</ele>
        <time>2018-03-21T07:12:17Z</time>
      </trkpt>
      <trkpt lat="46.88466" lon="-1.91258">
        <ele>16</ele>
        <time>2018-03-21T07:13:17Z</time>
      </trkpt>
      <trkpt lat="46.88468" lon="-1.91248">
        <ele>16</ele>
        <time>2018-03-21T07:14:17Z</time>
      </trkpt>
      <trkpt lat="46.88707" lon="-1.91325">
        <ele>16</ele>
        <time>2018-03-21T07:15:17Z</time>
      </trkpt>
      <trkpt lat="46.88749" lon="-1.91343">
        <ele>17</ele>
        <time>2018-03-21T07:16:17Z</time>
      </trkpt>
      <trkpt lat="46.88855" lon="-1.91393">
        <ele>16</ele>
        <time>2018-03-21T07:17:17Z</time>
      </trkpt>
      <trkpt lat="46.88912" lon="-1.91412">
        <ele>15</ele>
        <time>2018-03-21T07:18:17Z</time>
      </trkpt>
      <trkpt lat="46.89364" lon="-1.91587">
        <ele>11</ele>
        <time>2018-03-21T07:19:17Z</time>
      </trkpt>
      <trkpt lat="46.89412" lon="-1.91602">
        <ele>10</ele>
        <time>2018-03-21T07:20:17Z</time>
      </trkpt>
      <trkpt lat="46.89429" lon="-1.91618">
        <ele>10</ele>
        <time>2018-03-21T07:21:17Z</time>
      </trkpt>
      <trkpt lat="46.89457" lon="-1.91621">
        <ele>10</ele>
        <time>2018-03-21T07:22:17Z</time>
      </trkpt>
      <trkpt lat="46.89551" lon="-1.91641">
        <ele>10</ele>
        <time>2018-03-21T07:23:17Z</time>
      </trkpt>
      <trkpt lat="46.89918" lon="-1.91725">
        <ele>10</ele>
        <time>2018-03-21T07:24:17Z</time>
      </trkpt>
      <trkpt lat="46.89947" lon="-1.9173">
        <ele>11</ele>
        <time>2018-03-21T07:25:17Z</time>
      </trkpt>
      <trkpt lat="46.89965" lon="-1.9173">
        <ele>11</ele>
        <time>2018-03-21T07:26:17Z</time>
      </trkpt>
      <trkpt lat="46.90375" lon="-1.91704">
        <ele>12</ele>
        <time>2018-03-21T07:27:17Z</time>
      </trkpt>
      <trkpt lat="46.90397" lon="-1.91699">
        <ele>12</ele>
        <time>2018-03-21T07:28:17Z</time>
      </trkpt>
      <trkpt lat="46.90421" lon="-1.91689">
        <ele>12</ele>
        <time>2018-03-21T07:29:17Z</time>
      </trkpt>
      <trkpt lat="46.90783" lon="-1.91512">
        <ele>22</ele>
        <time>2018-03-21T07:30:17Z</time>
      </trkpt>
      <trkpt lat="46.90872" lon="-1.91464">
        <ele>22</ele>
        <time>2018-03-21T07:31:17Z</time>
      </trkpt>
      <trkpt lat="46.91164" lon="-1.91318">
        <ele>18</ele>
        <time>2018-03-21T07:32:17Z</time>
      </trkpt>
      <trkpt lat="46.91394" lon="-1.91214">
        <ele>16</ele>
        <time>2018-03-21T07:33:17Z</time>
      </trkpt>
      <trkpt lat="46.91425" lon="-1.91202">
        <ele>16</ele>
        <time>2018-03-21T07:34:17Z</time>
      </trkpt>
      <trkpt lat="46.91469" lon="-1.91191">
        <ele>15</ele>
        <time>2018-03-21T07:35:17Z</time>
      </trkpt>
      <trkpt lat="46.91615" lon="-1.91171">
        <ele>11</ele>
        <time>2018-03-21T07:36:17Z</time>
      </trkpt>
      <trkpt lat="46.91638" lon="-1.91161">
        <ele>11</ele>
        <time>2018-03-21T07:37:17Z</time>
      </trkpt>
      <trkpt lat="46.91662" lon="-1.91147">
        <ele>11</ele>
        <time>2018-03-21T07:38:17Z</time>
      </trkpt>
      <trkpt lat="46.91702" lon="-1.91116">
        <ele>11</ele>
        <time>2018-03-21T07:39:17Z</time>
      </trkpt>
      <trkpt lat="46.91728" lon="-1.91101">
        <ele>10</ele>
        <time>2018-03-21T07:40:17Z</time>
      </trkpt>
      <trkpt lat="46.91735" lon="-1.91158">
        <ele>11</ele>
        <time>2018-03-21T07:41:17Z</time>
      </trkpt>
      <trkpt lat="46.9174" lon="-1.91179">
        <ele>11</ele>
        <time>2018-03-21T07:42:17Z</time>
      </trkpt>
      <trkpt lat="46.91848" lon="-1.91432">
        <ele>8</ele>
        <time>2018-03-21T07:43:17Z</time>
      </trkpt>
      <trkpt lat="46.91894" lon="-1.91588">
        <ele>9</ele>
        <time>2018-03-21T07:44:17Z</time>
      </trkpt>
      <trkpt lat="46.91934" lon="-1.91726">
        <ele>9</ele>
        <time>2018-03-21T07:45:17Z</time>
      </trkpt>
      <trkpt lat="46.9194" lon="-1.91748">
        <ele>9</ele>
        <time>2018-03-21T07:46:17Z</time>
      </trkpt>
      <trkpt lat="46.91944" lon="-1.91774">
        <ele>9</ele>
        <time>2018-03-21T07:47:17Z</time>
      </trkpt>
      <trkpt lat="46.91942" lon="-1.9187">
        <ele>9</ele>
        <time>2018-03-21T07:48:17Z</time>
      </trkpt>
      <trkpt lat="46.9194" lon="-1.91899">
        <ele>9</ele>
        <time>2018-03-21T07:49:17Z</time>
      </trkpt>
      <trkpt lat="46.91914" lon="-1.92043">
        <ele>11</ele>
        <time>2018-03-21T07:50:17Z</time>
      </trkpt>
      <trkpt lat="46.91907" lon="-1.92091">
        <ele>11</ele>
        <time>2018-03-21T07:51:17Z</time>
      </trkpt>
      <trkpt lat="46.91906" lon="-1.92129">
        <ele>11</ele>
        <time>2018-03-21T07:52:17Z</time>
      </trkpt>
      <trkpt lat="46.91929" lon="-1.92374">
        <ele>10</ele>
        <time>2018-03-21T07:53:17Z</time>
      </trkpt>
      <trkpt lat="46.91936" lon="-1.92464">
        <ele>10</ele>
        <time>2018-03-21T07:54:17Z</time>
      </trkpt>
      <trkpt lat="46.91934" lon="-1.92548">
        <ele>11</ele>
        <time>2018-03-21T07:55:17Z</time>
      </trkpt>
      <trkpt lat="46.91915" lon="-1.92692">
        <ele>12</ele>
        <time>2018-03-21T07:56:17Z</time>
      </trkpt>
      <trkpt lat="46.91915" lon="-1.92692">
        <ele>12</ele>
        <time>2018-03-21T07:57:17Z</time>
      </trkpt>
      <trkpt lat="46.91889" lon="-1.92893">
        <ele>14</ele>
        <time>2018-03-21T07:58:17Z</time>
      </trkpt>
      <trkpt lat="46.91852" lon="-1.93155">
        <ele>15</ele>
        <time>2018-03-21T07:59:17Z</time>
      </trkpt>
      <trkpt lat="46.91825" lon="-1.93285">
        <ele>13</ele>
        <time>2018-03-21T08:00:17Z</time>
      </trkpt>
      <trkpt lat="46.91734" lon="-1.93689">
        <ele>19</ele>
        <time>2018-03-21T08:01:17Z</time>
      </trkpt>
      <trkpt lat="46.91724" lon="-1.93738">
        <ele>20</ele>
        <time>2018-03-21T08:02:17Z</time>
      </trkpt>
      <trkpt lat="46.91718" lon="-1.93779">
        <ele>21</ele>
        <time>2018-03-21T08:03:17Z</time>
      </trkpt>
      <trkpt lat="46.91674" lon="-1.94501">
        <ele>24</ele>
        <time>2018-03-21T08:04:17Z</time>
      </trkpt>
      <trkpt lat="46.9167" lon="-1.94551">
        <ele>26</ele>
        <time>2018-03-21T08:05:17Z</time>
      </trkpt>
      <trkpt lat="46.9166" lon="-1.94617">
        <ele>27</ele>
        <time>2018-03-21T08:06:17Z</time>
      </trkpt>
      <trkpt lat="46.91646" lon="-1.9468">
        <ele>26</ele>
        <time>2018-03-21T08:07:17Z</time>
      </trkpt>
      <trkpt lat="46.91303" lon="-1.96">
        <ele>31</ele>
        <time>2018-03-21T08:08:17Z</time>
      </trkpt>
      <trkpt lat="46.91042" lon="-1.9678">
        <ele>31</ele>
        <time>2018-03-21T08:09:17Z</time>
      </trkpt>
      <trkpt lat="46.90952" lon="-1.97053">
        <ele>31</ele>
        <time>2018-03-21T08:10:17Z</time>
      </trkpt>
      <trkpt lat="46.9078" lon="-1.97749">
        <ele>26</ele>
        <time>2018-03-21T08:11:17Z</time>
      </trkpt>
      <trkpt lat="46.90772" lon="-1.97787">
        <ele>27</ele>
        <time>2018-03-21T08:12:17Z</time>
      </trkpt>
      <trkpt lat="46.90768" lon="-1.97821">
        <ele>28</ele>
        <time>2018-03-21T08:13:17Z</time>
      </trkpt>
      <trkpt lat="46.90768" lon="-1.97895">
        <ele>29</ele>
        <time>2018-03-21T08:14:17Z</time>
      </trkpt>
      <trkpt lat="46.90763" lon="-1.98042">
        <ele>30</ele>
        <time>2018-03-21T08:15:17Z</time>
      </trkpt>
      <trkpt lat="46.90757" lon="-1.98077">
        <ele>31</ele>
        <time>2018-03-21T08:16:17Z</time>
      </trkpt>
      <trkpt lat="46.90748" lon="-1.98104">
        <ele>31</ele>
        <time>2018-03-21T08:17:17Z</time>
      </trkpt>
      <trkpt lat="46.90728" lon="-1.98147">
        <ele>30</ele>
        <time>2018-03-21T08:18:17Z</time>
      </trkpt>
      <trkpt lat="46.90701" lon="-1.9819">
        <ele>29</ele>
        <time>2018-03-21T08:19:17Z</time>
      </trkpt>
      <trkpt lat="46.9063" lon="-1.98262">
        <ele>27</ele>
        <time>2018-03-21T08:20:17Z</time>
      </trkpt>
      <trkpt lat="46.90622" lon="-1.98273">
        <ele>27</ele>
        <time>2018-03-21T08:21:17Z</time>
      </trkpt>
      <trkpt lat="46.9061" lon="-1.98302">
        <ele>27</ele>
        <time>2018-03-21T08:22:17Z</time>
      </trkpt>
      <trkpt lat="46.90604" lon="-1.98333">
        <ele>26</ele>
        <time>2018-03-21T08:23:17Z</time>
      </trkpt>
      <trkpt lat="46.90597" lon="-1.98455">
        <ele>24</ele>
        <time>2018-03-21T08:24:17Z</time>
      </trkpt>
      <trkpt lat="46.90584" lon="-1.98538">
        <ele>22</ele>
        <time>2018-03-21T08:25:17Z</time>
      </trkpt>
      <trkpt lat="46.90566" lon="-1.98595">
        <ele>21</ele>
        <time>2018-03-21T08:26:17Z</time>
      </trkpt>
      <trkpt lat="46.90531" lon="-1.98681">
        <ele>21</ele>
        <time>2018-03-21T08:27:17Z</time>
      </trkpt>
      <trkpt lat="46.90528" lon="-1.98711">
        <ele>20</ele>
        <time>2018-03-21T08:28:17Z</time>
      </trkpt>
      <trkpt lat="46.90528" lon="-1.98734">
        <ele>20</ele>
        <time>2018-03-21T08:29:17Z</time>
      </trkpt>
      <trkpt lat="46.90532" lon="-1.98768">
        <ele>20</ele>
        <time>2018-03-21T08:30:17Z</time>
      </trkpt>
      <trkpt lat="46.90535" lon="-1.98784">
        <ele>20</ele>
        <time>2018-03-21T08:31:17Z</time>
      </trkpt>
      <trkpt lat="46.906" lon="-1.98974">
        <ele>23</ele>
        <time>2018-03-21T08:32:17Z</time>
      </trkpt>
      <trkpt lat="46.90602" lon="-1.98989">
        <ele>23</ele>
        <time>2018-03-21T08:33:17Z</time>
      </trkpt>
      <trkpt lat="46.90598" lon="-1.98999">
        <ele>23</ele>
        <time>2018-03-21T08:34:17Z</time>
      </trkpt>
      <trkpt lat="46.906" lon="-1.99005">
        <ele>23</ele>
        <time>2018-03-21T08:35:17Z</time>
      </trkpt>
      <trkpt lat="46.90602" lon="-1.99027">
        <ele>24</ele>
        <time>2018-03-21T08:36:17Z</time>
      </trkpt>
      <trkpt lat="46.90598" lon="-1.99137">
        <ele>24</ele>
        <time>2018-03-21T08:37:17Z</time>
      </trkpt>
      <trkpt lat="46.90597" lon="-1.99191">
        <ele>24</ele>
        <time>2018-03-21T08:38:17Z</time>
      </trkpt>
      <trkpt lat="46.90596" lon="-1.99209">
        <ele>23</ele>
        <time>2018-03-21T08:39:17Z</time>
      </trkpt>
      <trkpt lat="46.90594" lon="-1.99222">
        <ele>23</ele>
        <time>2018-03-21T08:40:17Z</time>
      </trkpt>
      <trkpt lat="46.90586" lon="-1.99251">
        <ele>23</ele>
        <time>2018-03-21T08:41:17Z</time>
      </trkpt>
      <trkpt lat="46.90545" lon="-1.99334">
        <ele>22</ele>
        <time>2018-03-21T08:42:17Z</time>
      </trkpt>
      <trkpt lat="46.90522" lon="-1.99384">
        <ele>22</ele>
        <time>2018-03-21T08:43:17Z</time>
      </trkpt>
      <trkpt lat="46.90496" lon="-1.9943">
        <ele>22</ele>
        <time>2018-03-21T08:44:17Z</time>
      </trkpt>
      <trkpt lat="46.90496" lon="-1.9943">
        <ele>22</ele>
        <time>2018-03-21T08:45:17Z</time>
      </trkpt>
      <trkpt lat="46.9046" lon="-1.99472">
        <ele>20</ele>
        <time>2018-03-21T08:46:17Z</time>
      </trkpt>
      <trkpt lat="46.9041" lon="-1.99514">
        <ele>17</ele>
        <time>2018-03-21T08:47:17Z</time>
      </trkpt>
      <trkpt lat="46.90398" lon="-1.99531">
        <ele>16</ele>
        <time>2018-03-21T08:48:17Z</time>
      </trkpt>
      <trkpt lat="46.90393" lon="-1.99549">
        <ele>15</ele>
        <time>2018-03-21T08:49:17Z</time>
      </trkpt>
      <trkpt lat="46.90381" lon="-1.99623">
        <ele>14</ele>
        <time>2018-03-21T08:50:17Z</time>
      </trkpt>
      <trkpt lat="46.90379" lon="-1.99646">
        <ele>14</ele>
        <time>2018-03-21T08:51:17Z</time>
      </trkpt>
      <trkpt lat="46.90382" lon="-1.99661">
        <ele>14</ele>
        <time>2018-03-21T08:52:17Z</time>
      </trkpt>
      <trkpt lat="46.90355" lon="-1.99683">
        <ele>13</ele>
        <time>2018-03-21T08:53:17Z</time>
      </trkpt>
      <trkpt lat="46.9034" lon="-1.997">
        <ele>12</ele>
        <time>2018-03-21T08:54:17Z</time>
      </trkpt>
      <trkpt lat="46.90365" lon="-1.99746">
        <ele>12</ele>
        <time>2018-03-21T08:55:17Z</time>
      </trkpt>
      <trkpt lat="46.90366" lon="-1.99754">
        <ele>12</ele>
        <time>2018-03-21T08:56:17Z</time>
      </trkpt>
      <trkpt lat="46.90364" lon="-1.99768">
        <ele>12</ele>
        <time>2018-03-21T08:57:17Z</time>
      </trkpt>
      <trkpt lat="46.90326" lon="-1.99814">
        <ele>12</ele>
        <time>2018-03-21T08:58:17Z</time>
      </trkpt>
      <trkpt lat="46.90296" lon="-1.99845">
        <ele>11</ele>
        <time>2018-03-21T08:59:17Z</time>
      </trkpt>
      <trkpt lat="46.90278" lon="-1.9988">
        <ele>11</ele>
        <time>2018-03-21T09:00:17Z</time>
      </trkpt>
      <trkpt lat="46.90253" lon="-1.99903">
        <ele>10</ele>
        <time>2018-03-21T09:01:17Z</time>
      </trkpt>
      <trkpt lat="46.9026" lon="-1.99919">
        <ele>10</ele>
        <time>2018-03-21T09:02:17Z</time>
      </trkpt>
      <trkpt lat="46.90261" lon="-1.99953">
        <ele>10</ele>
        <time>2018-03-21T09:03:17Z</time>
      </trkpt>
      <trkpt lat="46.90242" lon="-2.00088">
        <ele>7</ele>
        <time>2018-03-21T09:04:17Z</time>
      </trkpt>
      <trkpt lat="46.90174" lon="-2.00099">
        <ele>6</ele>
        <time>2018-03-21T09:05:17Z</time>
      </trkpt>
      <trkpt lat="46.90149" lon="-2.00105">
        <ele>6</ele>
        <time>2018-03-21T09:06:17Z</time>
      </trkpt>
      <trkpt lat="46.9005" lon="-2.00134">
        <ele>4</ele>
        <time>2018-03-21T09:07:17Z</time>
      </trkpt>
      <trkpt lat="46.8996" lon="-2.00164">
        <ele>4</ele>
        <time>2018-03-21T09:08:17Z</time>
      </trkpt>
      <trkpt lat="46.89926" lon="-2.00179">
        <ele>4</ele>
        <time>2018-03-21T09:09:17Z</time>
      </trkpt>
      <trkpt lat="46.89927" lon="-2.00185">
        <ele>4</ele>
        <time>2018-03-21T09:10:17Z</time>
      </trkpt>
      <trkpt lat="46.89926" lon="-2.00195">
        <ele>4</ele>
        <time>2018-03-21T09:11:17Z</time>
      </trkpt>
      <trkpt lat="46.89923" lon="-2.00203">
        <ele>4</ele>
        <time>2018-03-21T09:12:17Z</time>
      </trkpt>
      <trkpt lat="46.89918" lon="-2.00208">
        <ele>4</ele>
        <time>2018-03-21T09:13:17Z</time>
      </trkpt>
      <trkpt lat="46.89912" lon="-2.00211">
        <ele>3</ele>
        <time>2018-03-21T09:14:17Z</time>
      </trkpt>
      <trkpt lat="46.89906" lon="-2.00211">
        <ele>4</ele>
        <time>2018-03-21T09:15:17Z</time>
      </trkpt>
      <trkpt lat="46.899" lon="-2.00207">
        <ele>4</ele>
        <time>2018-03-21T09:16:17Z</time>
      </trkpt>
      <trkpt lat="46.89896" lon="-2.00202">
        <ele>4</ele>
        <time>2018-03-21T09:17:17Z</time>
      </trkpt>
      <trkpt lat="46.89893" lon="-2.00192">
        <ele>4</ele>
        <time>2018-03-21T09:18:17Z</time>
      </trkpt>
      <trkpt lat="46.89664" lon="-2.00293">
        <ele>3</ele>
        <time>2018-03-21T09:19:17Z</time>
      </trkpt>
      <trkpt lat="46.89519" lon="-2.00355">
        <ele>3</ele>
        <time>2018-03-21T09:20:17Z</time>
      </trkpt>
      <trkpt lat="46.89199" lon="-2.00549">
        <ele>1</ele>
        <time>2018-03-21T09:21:17Z</time>
      </trkpt>
      <trkpt lat="46.89152" lon="-2.00569">
        <ele>2</ele>
        <time>2018-03-21T09:22:17Z</time>
      </trkpt>
      <trkpt lat="46.89027" lon="-2.00611">
        <ele>2</ele>
        <time>2018-03-21T09:23:17Z</time>
      </trkpt>
      <trkpt lat="46.88642" lon="-2.00735">
        <ele>3</ele>
        <time>2018-03-21T09:24:17Z</time>
      </trkpt>
      <trkpt lat="46.88422" lon="-2.00787">
        <ele>4</ele>
        <time>2018-03-21T09:25:17Z</time>
      </trkpt>
      <trkpt lat="46.88368" lon="-2.00795">
        <ele>4</ele>
        <time>2018-03-21T09:26:17Z</time>
      </trkpt>
      <trkpt lat="46.8813" lon="-2.00805">
        <ele>2</ele>
        <time>2018-03-21T09:27:17Z</time>
      </trkpt>
      <trkpt lat="46.88115" lon="-2.00807">
        <ele>2</ele>
        <time>2018-03-21T09:28:17Z</time>
      </trkpt>
      <trkpt lat="46.88109" lon="-2.00813">
        <ele>2</ele>
        <time>2018-03-21T09:29:17Z</time>
      </trkpt>
      <trkpt lat="46.88101" lon="-2.00811">
        <ele>2</ele>
        <time>2018-03-21T09:30:17Z</time>
      </trkpt>
      <trkpt lat="46.88092" lon="-2.00813">
        <ele>1</ele>
        <time>2018-03-21T09:31:17Z</time>
      </trkpt>
      <trkpt lat="46.88055" lon="-2.00824">
        <ele>1</ele>
        <time>2018-03-21T09:32:17Z</time>
      </trkpt>
      <trkpt lat="46.88015" lon="-2.00833">
        <ele>2</ele>
        <time>2018-03-21T09:33:17Z</time>
      </trkpt>
      <trkpt lat="46.87909" lon="-2.00898">
        <ele>2</ele>
        <time>2018-03-21T09:34:17Z</time>
      </trkpt>
      <trkpt lat="46.87869" lon="-2.00917">
        <ele>2</ele>
        <time>2018-03-21T09:35:17Z</time>
      </trkpt>
      <trkpt lat="46.87841" lon="-2.00927">
        <ele>2</ele>
        <time>2018-03-21T09:36:17Z</time>
      </trkpt>
      <trkpt lat="46.87823" lon="-2.0093">
        <ele>2</ele>
        <time>2018-03-21T09:37:17Z</time>
      </trkpt>
      <trkpt lat="46.87784" lon="-2.00932">
        <ele>2</ele>
        <time>2018-03-21T09:38:17Z</time>
      </trkpt>
      <trkpt lat="46.87684" lon="-2.00927">
        <ele>3</ele>
        <time>2018-03-21T09:39:17Z</time>
      </trkpt>
      <trkpt lat="46.87672" lon="-2.0093">
        <ele>3</ele>
        <time>2018-03-21T09:40:17Z</time>
      </trkpt>
      <trkpt lat="46.87671" lon="-2.00934">
        <ele>3</ele>
        <time>2018-03-21T09:41:17Z</time>
      </trkpt>
      <trkpt lat="46.87669" lon="-2.00939">
        <ele>3</ele>
        <time>2018-03-21T09:42:17Z</time>
      </trkpt>
      <trkpt lat="46.87671" lon="-2.00949">
        <ele>3</ele>
        <time>2018-03-21T09:43:17Z</time>
      </trkpt>
      <trkpt lat="46.87662" lon="-2.01056">
        <ele>2</ele>
        <time>2018-03-21T09:44:17Z</time>
      </trkpt>
      <trkpt lat="46.87648" lon="-2.01203">
        <ele>3</ele>
        <time>2018-03-21T09:45:17Z</time>
      </trkpt>
      <trkpt lat="46.87645" lon="-2.01251">
        <ele>3</ele>
        <time>2018-03-21T09:46:17Z</time>
      </trkpt>
      <trkpt lat="46.87646" lon="-2.01276">
        <ele>2</ele>
        <time>2018-03-21T09:47:17Z</time>
      </trkpt>
      <trkpt lat="46.87663" lon="-2.01364">
        <ele>1</ele>
        <time>2018-03-21T09:48:17Z</time>
      </trkpt>
      <trkpt lat="46.8767" lon="-2.01392">
        <ele>1</ele>
        <time>2018-03-21T09:49:17Z</time>
      </trkpt>
      <trkpt lat="46.87692" lon="-2.01533">
        <ele>2</ele>
        <time>2018-03-21T09:50:17Z</time>
      </trkpt>
      <trkpt lat="46.87694" lon="-2.01561">
        <ele>2</ele>
        <time>2018-03-21T09:51:17Z</time>
      </trkpt>
      <trkpt lat="46.87694" lon="-2.01697">
        <ele>2</ele>
        <time>2018-03-21T09:52:17Z</time>
      </trkpt>
      <trkpt lat="46.87696" lon="-2.01729">
        <ele>2</ele>
        <time>2018-03-21T09:53:17Z</time>
      </trkpt>
      <trkpt lat="46.87707" lon="-2.01832">
        <ele>2</ele>
        <time>2018-03-21T09:54:17Z</time>
      </trkpt>
      <trkpt lat="46.87708" lon="-2.01857">
        <ele>2</ele>
        <time>2018-03-21T09:55:17Z</time>
      </trkpt>
      <trkpt lat="46.87695" lon="-2.01996">
        <ele>2</ele>
        <time>2018-03-21T09:56:17Z</time>
      </trkpt>
      <trkpt lat="46.87692" lon="-2.02015">
        <ele>1</ele>
        <time>2018-03-21T09:57:17Z</time>
      </trkpt>
      <trkpt lat="46.87682" lon="-2.02053">
        <ele>1</ele>
        <time>2018-03-21T09:58:17Z</time>
      </trkpt>
      <trkpt lat="46.87647" lon="-2.02174">
        <ele>2.1</ele>
        <time>2018-03-21T09:59:17Z</time>
      </trkpt>
      <trkpt lat="46.87631" lon="-2.02242">
        <ele>1</ele>
        <time>2018-03-21T10:00:17Z</time>
      </trkpt>
      <trkpt lat="46.87608" lon="-2.02406">
        <ele>1.9</ele>
        <time>2018-03-21T10:01:17Z</time>
      </trkpt>
      <trkpt lat="46.87598" lon="-2.02497">
        <ele>1</ele>
        <time>2018-03-21T10:02:17Z</time>
      </trkpt>
      <trkpt lat="46.87591" lon="-2.02539">
        <ele>1</ele>
        <time>2018-03-21T10:03:17Z</time>
      </trkpt>
      <trkpt lat="46.87579" lon="-2.02583">
        <ele>1.8</ele>
        <time>2018-03-21T10:04:17Z</time>
      </trkpt>
      <trkpt lat="46.87561" lon="-2.02617">
        <ele>1</ele>
        <time>2018-03-21T10:05:17Z</time>
      </trkpt>
      <trkpt lat="46.87508" lon="-2.02705">
        <ele>2</ele>
        <time>2018-03-21T10:06:17Z</time>
      </trkpt>
      <trkpt lat="46.87489" lon="-2.02741">
        <ele>2.2</ele>
        <time>2018-03-21T10:07:17Z</time>
      </trkpt>
      <trkpt lat="46.87478" lon="-2.02778">
        <ele>1</ele>
        <time>2018-03-21T10:08:17Z</time>
      </trkpt>
      <trkpt lat="46.87463" lon="-2.02891">
        <ele>1</ele>
        <time>2018-03-21T10:09:17Z</time>
      </trkpt>
      <trkpt lat="46.87448" lon="-2.02975">
        <ele>1</ele>
        <time>2018-03-21T10:10:17Z</time>
      </trkpt>
      <trkpt lat="46.87423" lon="-2.03068">
        <ele>2</ele>
        <time>2018-03-21T10:11:17Z</time>
      </trkpt>
      <trkpt lat="46.87373" lon="-2.03243">
        <ele>2</ele>
        <time>2018-03-21T10:12:17Z</time>
      </trkpt>
      <trkpt lat="46.8736" lon="-2.03278">
        <ele>2</ele>
        <time>2018-03-21T10:13:17Z</time>
      </trkpt>
      <trkpt lat="46.87339" lon="-2.03319">
        <ele>2</ele>
        <time>2018-03-21T10:14:17Z</time>
      </trkpt>
      <trkpt lat="46.87277" lon="-2.03415">
        <ele>1.9</ele>
        <time>2018-03-21T10:15:17Z</time>
      </trkpt>
      <trkpt lat="46.87257" lon="-2.03456">
        <ele>1.6</ele>
        <time>2018-03-21T10:16:17Z</time>
      </trkpt>
      <trkpt lat="46.8725" lon="-2.03503">
        <ele>2</ele>
        <time>2018-03-21T10:17:17Z</time>
      </trkpt>
      <trkpt lat="46.87253" lon="-2.03574">
        <ele>1.7</ele>
        <time>2018-03-21T10:18:17Z</time>
      </trkpt>
      <trkpt lat="46.87259" lon="-2.03616">
        <ele>2</ele>
        <time>2018-03-21T10:19:17Z</time>
      </trkpt>
      <trkpt lat="46.87275" lon="-2.0366">
        <ele>1</ele>
        <time>2018-03-21T10:20:17Z</time>
      </trkpt>
      <trkpt lat="46.87342" lon="-2.03827">
        <ele>2</ele>
        <time>2018-03-21T10:21:17Z</time>
      </trkpt>
      <trkpt lat="46.87351" lon="-2.03859">
        <ele>1.4</ele>
        <time>2018-03-21T10:22:17Z</time>
      </trkpt>
      <trkpt lat="46.87355" lon="-2.03892">
        <ele>2</ele>
        <time>2018-03-21T10:23:17Z</time>
      </trkpt>
      <trkpt lat="46.87359" lon="-2.03998">
        <ele>2</ele>
        <time>2018-03-21T10:24:17Z</time>
      </trkpt>
      <trkpt lat="46.87364" lon="-2.04048">
        <ele>1</ele>
        <time>2018-03-21T10:25:17Z</time>
      </trkpt>
      <trkpt lat="46.87371" lon="-2.04081">
        <ele>1</ele>
        <time>2018-03-21T10:26:17Z</time>
      </trkpt>
      <trkpt lat="46.8738" lon="-2.04112">
        <ele>1</ele>
        <time>2018-03-21T10:27:17Z</time>
      </trkpt>
      <trkpt lat="46.87391" lon="-2.04141">
        <ele>1</ele>
        <time>2018-03-21T10:28:17Z</time>
      </trkpt>
      <trkpt lat="46.87413" lon="-2.04184">
        <ele>1</ele>
        <time>2018-03-21T10:29:17Z</time>
      </trkpt>
      <trkpt lat="46.87419" lon="-2.04199">
        <ele>2</ele>
        <time>2018-03-21T10:30:17Z</time>
      </trkpt>
      <trkpt lat="46.87428" lon="-2.0423">
        <ele>1</ele>
        <time>2018-03-21T10:31:17Z</time>
      </trkpt>
      <trkpt lat="46.87436" lon="-2.04264">
        <ele>1</ele>
        <time>2018-03-21T10:32:17Z</time>
      </trkpt>
      <trkpt lat="46.87444" lon="-2.04322">
        <ele>2</ele>
        <time>2018-03-21T10:33:17Z</time>
      </trkpt>
      <trkpt lat="46.87459" lon="-2.0449">
        <ele>1</ele>
        <time>2018-03-21T10:34:17Z</time>
      </trkpt>
      <trkpt lat="46.87465" lon="-2.04522">
        <ele>1</ele>
        <time>2018-03-21T10:35:17Z</time>
      </trkpt>
      <trkpt lat="46.87493" lon="-2.04616">
        <ele>2</ele>
        <time>2018-03-21T10:36:17Z</time>
      </trkpt>
      <trkpt lat="46.87515" lon="-2.04679">
        <ele>1</ele>
        <time>2018-03-21T10:37:17Z</time>
      </trkpt>
      <trkpt lat="46.87515" lon="-2.04679">
        <ele>1</ele>
        <time>2018-03-21T10:38:17Z</time>
      </trkpt>
      <trkpt lat="46.87561" lon="-2.04765">
        <ele>1</ele>
        <time>2018-03-21T10:39:17Z</time>
      </trkpt>
      <trkpt lat="46.87567" lon="-2.04794">
        <ele>1</ele>
        <time>2018-03-21T10:40:17Z</time>
      </trkpt>
      <trkpt lat="46.87567" lon="-2.04824">
        <ele>1</ele>
        <time>2018-03-21T10:41:17Z</time>
      </trkpt>
      <trkpt lat="46.87552" lon="-2.04907">
        <ele>1</ele>
        <time>2018-03-21T10:42:17Z</time>
      </trkpt>
      <trkpt lat="46.87541" lon="-2.04956">
        <ele>2</ele>
        <time>2018-03-21T10:43:17Z</time>
      </trkpt>
      <trkpt lat="46.87528" lon="-2.04986">
        <ele>2</ele>
        <time>2018-03-21T10:44:17Z</time>
      </trkpt>
      <trkpt lat="46.87488" lon="-2.05045">
        <ele>1</ele>
        <time>2018-03-21T10:45:17Z</time>
      </trkpt>
      <trkpt lat="46.87482" lon="-2.05059">
        <ele>1</ele>
        <time>2018-03-21T10:46:17Z</time>
      </trkpt>
      <trkpt lat="46.87478" lon="-2.05075">
        <ele>1</ele>
        <time>2018-03-21T10:47:17Z</time>
      </trkpt>
      <trkpt lat="46.87475" lon="-2.05108">
        <ele>1</ele>
        <time>2018-03-21T10:48:17Z</time>
      </trkpt>
      <trkpt lat="46.87473" lon="-2.0516">
        <ele>2</ele>
        <time>2018-03-21T10:49:17Z</time>
      </trkpt>
      <trkpt lat="46.8747" lon="-2.05192">
        <ele>2</ele>
        <time>2018-03-21T10:50:17Z</time>
      </trkpt>
      <trkpt lat="46.87464" lon="-2.05296">
        <ele>1</ele>
        <time>2018-03-21T10:51:17Z</time>
      </trkpt>
      <trkpt lat="46.87463" lon="-2.05345">
        <ele>2</ele>
        <time>2018-03-21T10:52:17Z</time>
      </trkpt>
      <trkpt lat="46.87467" lon="-2.05379">
        <ele>2</ele>
        <time>2018-03-21T10:53:17Z</time>
      </trkpt>
      <trkpt lat="46.8748" lon="-2.05423">
        <ele>2</ele>
        <time>2018-03-21T10:54:17Z</time>
      </trkpt>
      <trkpt lat="46.87487" lon="-2.0544">
        <ele>2</ele>
        <time>2018-03-21T10:55:17Z</time>
      </trkpt>
      <trkpt lat="46.87494" lon="-2.05451">
        <ele>2</ele>
        <time>2018-03-21T10:56:17Z</time>
      </trkpt>
      <trkpt lat="46.87512" lon="-2.05473">
        <ele>1</ele>
        <time>2018-03-21T10:57:17Z</time>
      </trkpt>
      <trkpt lat="46.87816" lon="-2.05826">
        <ele>1</ele>
        <time>2018-03-21T10:58:17Z</time>
      </trkpt>
      <trkpt lat="46.8783" lon="-2.05851">
        <ele>1</ele>
        <time>2018-03-21T10:59:17Z</time>
      </trkpt>
      <trkpt lat="46.8783" lon="-2.05856">
        <ele>1</ele>
        <time>2018-03-21T11:00:17Z</time>
      </trkpt>
      <trkpt lat="46.87727" lon="-2.05852">
        <ele>1</ele>
        <time>2018-03-21T11:01:17Z</time>
      </trkpt>
      <trkpt lat="46.87685" lon="-2.05855">
        <ele>2</ele>
        <time>2018-03-21T11:02:17Z</time>
      </trkpt>
      <trkpt lat="46.87414" lon="-2.05916">
        <ele>1</ele>
        <time>2018-03-21T11:03:17Z</time>
      </trkpt>
      <trkpt lat="46.87141" lon="-2.05973">
        <ele>2.1</ele>
        <time>2018-03-21T11:04:17Z</time>
      </trkpt>
      <trkpt lat="46.87002" lon="-2.05992">
        <ele>2.7</ele>
        <time>2018-03-21T11:05:17Z</time>
      </trkpt>
      <trkpt lat="46.86695" lon="-2.06026">
        <ele>2</ele>
        <time>2018-03-21T11:06:17Z</time>
      </trkpt>
      <trkpt lat="46.86655" lon="-2.06026">
        <ele>2.9</ele>
        <time>2018-03-21T11:07:17Z</time>
      </trkpt>
      <trkpt lat="46.86611" lon="-2.06024">
        <ele>2.9</ele>
        <time>2018-03-21T11:08:17Z</time>
      </trkpt>
      <trkpt lat="46.86365" lon="-2.05987">
        <ele>1</ele>
        <time>2018-03-21T11:09:17Z</time>
      </trkpt>
      <trkpt lat="46.86342" lon="-2.05985">
        <ele>1</ele>
        <time>2018-03-21T11:10:17Z</time>
      </trkpt>
      <trkpt lat="46.8632" lon="-2.05988">
        <ele>1</ele>
        <time>2018-03-21T11:11:17Z</time>
      </trkpt>
      <trkpt lat="46.86296" lon="-2.05995">
        <ele>1</ele>
        <time>2018-03-21T11:12:17Z</time>
      </trkpt>
      <trkpt lat="46.86268" lon="-2.06008">
        <ele>2</ele>
        <time>2018-03-21T11:13:17Z</time>
      </trkpt>
      <trkpt lat="46.86098" lon="-2.06105">
        <ele>1</ele>
        <time>2018-03-21T11:14:17Z</time>
      </trkpt>
      <trkpt lat="46.86064" lon="-2.06112">
        <ele>1</ele>
        <time>2018-03-21T11:15:17Z</time>
      </trkpt>
      <trkpt lat="46.86046" lon="-2.06112">
        <ele>1</ele>
        <time>2018-03-21T11:16:17Z</time>
      </trkpt>
      <trkpt lat="46.85679" lon="-2.06062">
        <ele>2</ele>
        <time>2018-03-21T11:17:17Z</time>
      </trkpt>
      <trkpt lat="46.85648" lon="-2.06055">
        <ele>1</ele>
        <time>2018-03-21T11:18:17Z</time>
      </trkpt>
      <trkpt lat="46.85625" lon="-2.06046">
        <ele>1</ele>
        <time>2018-03-21T11:19:17Z</time>
      </trkpt>
      <trkpt lat="46.85596" lon="-2.06029">
        <ele>1</ele>
        <time>2018-03-21T11:20:17Z</time>
      </trkpt>
      <trkpt lat="46.85503" lon="-2.05966">
        <ele>2</ele>
        <time>2018-03-21T11:21:17Z</time>
      </trkpt>
      <trkpt lat="46.85481" lon="-2.05954">
        <ele>2</ele>
        <time>2018-03-21T11:22:17Z</time>
      </trkpt>
      <trkpt lat="46.85437" lon="-2.05941">
        <ele>1.9</ele>
        <time>2018-03-21T11:23:17Z</time>
      </trkpt>
      <trkpt lat="46.85404" lon="-2.05939">
        <ele>2</ele>
        <time>2018-03-21T11:24:17Z</time>
      </trkpt>
      <trkpt lat="46.85368" lon="-2.05946">
        <ele>1.9</ele>
        <time>2018-03-21T11:25:17Z</time>
      </trkpt>
      <trkpt lat="46.85339" lon="-2.05954">
        <ele>1.4</ele>
        <time>2018-03-21T11:26:17Z</time>
      </trkpt>
      <trkpt lat="46.85312" lon="-2.05965">
        <ele>1.9</ele>
        <time>2018-03-21T11:27:17Z</time>
      </trkpt>
      <trkpt lat="46.85292" lon="-2.05977">
        <ele>2</ele>
        <time>2018-03-21T11:28:17Z</time>
      </trkpt>
      <trkpt lat="46.85266" lon="-2.05999">
        <ele>2</ele>
        <time>2018-03-21T11:29:17Z</time>
      </trkpt>
      <trkpt lat="46.85245" lon="-2.06023">
        <ele>2</ele>
        <time>2018-03-21T11:30:17Z</time>
      </trkpt>
      <trkpt lat="46.85194" lon="-2.06092">
        <ele>2</ele>
        <time>2018-03-21T11:31:17Z</time>
      </trkpt>
      <trkpt lat="46.85165" lon="-2.06121">
        <ele>1</ele>
        <time>2018-03-21T11:32:17Z</time>
      </trkpt>
      <trkpt lat="46.85153" lon="-2.06129">
        <ele>1</ele>
        <time>2018-03-21T11:33:17Z</time>
      </trkpt>
      <trkpt lat="46.85134" lon="-2.0614">
        <ele>1</ele>
        <time>2018-03-21T11:34:17Z</time>
      </trkpt>
      <trkpt lat="46.85103" lon="-2.0615">
        <ele>1</ele>
        <time>2018-03-21T11:35:17Z</time>
      </trkpt>
      <trkpt lat="46.85078" lon="-2.06151">
        <ele>1.9</ele>
        <time>2018-03-21T11:36:17Z</time>
      </trkpt>
      <trkpt lat="46.85052" lon="-2.06147">
        <ele>1.7</ele>
        <time>2018-03-21T11:37:17Z</time>
      </trkpt>
      <trkpt lat="46.8486" lon="-2.061">
        <ele>2.2</ele>
        <time>2018-03-21T11:38:17Z</time>
      </trkpt>
      <trkpt lat="46.84795" lon="-2.06088">
        <ele>1.9</ele>
        <time>2018-03-21T11:39:17Z</time>
      </trkpt>
      <trkpt lat="46.84253" lon="-2.06029">
        <ele>2.9</ele>
        <time>2018-03-21T11:40:17Z</time>
      </trkpt>
      <trkpt lat="46.84216" lon="-2.06026">
        <ele>2</ele>
        <time>2018-03-21T11:41:17Z</time>
      </trkpt>
      <trkpt lat="46.84173" lon="-2.06026">
        <ele>2</ele>
        <time>2018-03-21T11:42:17Z</time>
      </trkpt>
      <trkpt lat="46.84146" lon="-2.06034">
        <ele>2</ele>
        <time>2018-03-21T11:43:17Z</time>
      </trkpt>
      <trkpt lat="46.84128" lon="-2.06042">
        <ele>2</ele>
        <time>2018-03-21T11:44:17Z</time>
      </trkpt>
      <trkpt lat="46.83753" lon="-2.06242">
        <ele>1</ele>
        <time>2018-03-21T11:45:17Z</time>
      </trkpt>
      <trkpt lat="46.8371" lon="-2.06262">
        <ele>1</ele>
        <time>2018-03-21T11:46:17Z</time>
      </trkpt>
      <trkpt lat="46.83683" lon="-2.06269">
        <ele>1</ele>
        <time>2018-03-21T11:47:17Z</time>
      </trkpt>
      <trkpt lat="46.83621" lon="-2.06274">
        <ele>2</ele>
        <time>2018-03-21T11:48:17Z</time>
      </trkpt>
      <trkpt lat="46.83536" lon="-2.06275">
        <ele>1.9</ele>
        <time>2018-03-21T11:49:17Z</time>
      </trkpt>
      <trkpt lat="46.83506" lon="-2.0627">
        <ele>1</ele>
        <time>2018-03-21T11:50:17Z</time>
      </trkpt>
      <trkpt lat="46.83472" lon="-2.06258">
        <ele>2</ele>
        <time>2018-03-21T11:51:17Z</time>
      </trkpt>
      <trkpt lat="46.83189" lon="-2.06129">
        <ele>2.6</ele>
        <time>2018-03-21T11:52:17Z</time>
      </trkpt>
      <trkpt lat="46.83169" lon="-2.06132">
        <ele>2.3</ele>
        <time>2018-03-21T11:53:17Z</time>
      </trkpt>
      <trkpt lat="46.83156" lon="-2.06138">
        <ele>2.4</ele>
        <time>2018-03-21T11:54:17Z</time>
      </trkpt>
      <trkpt lat="46.83149" lon="-2.06145">
        <ele>2.5</ele>
        <time>2018-03-21T11:55:17Z</time>
      </trkpt>
      <trkpt lat="46.83141" lon="-2.06145">
        <ele>2.7</ele>
        <time>2018-03-21T11:56:17Z</time>
      </trkpt>
      <trkpt lat="46.83138" lon="-2.06143">
        <ele>2.8</ele>
        <time>2018-03-21T11:57:17Z</time>
      </trkpt>
      <trkpt lat="46.83133" lon="-2.06134">
        <ele>2.8</ele>
        <time>2018-03-21T11:58:17Z</time>
      </trkpt>
      <trkpt lat="46.83132" lon="-2.06128">
        <ele>2.8</ele>
        <time>2018-03-21T11:59:17Z</time>
      </trkpt>
      <trkpt lat="46.83128" lon="-2.06124">
        <ele>2.8</ele>
        <time>2018-03-21T12:00:17Z</time>
      </trkpt>
      <trkpt lat="46.83121" lon="-2.06118">
        <ele>2.8</ele>
        <time>2018-03-21T12:01:17Z</time>
      </trkpt>
      <trkpt lat="46.83098" lon="-2.06107">
        <ele>2.4</ele>
        <time>2018-03-21T12:02:17Z</time>
      </trkpt>
      <trkpt lat="46.83051" lon="-2.06112">
        <ele>2</ele>
        <time>2018-03-21T12:03:17Z</time>
      </trkpt>
      <trkpt lat="46.82803" lon="-2.06157">
        <ele>1.4</ele>
        <time>2018-03-21T12:04:17Z</time>
      </trkpt>
      <trkpt lat="46.8278" lon="-2.06159">
        <ele>1</ele>
        <time>2018-03-21T12:05:17Z</time>
      </trkpt>
      <trkpt lat="46.82503" lon="-2.0614">
        <ele>2.9</ele>
        <time>2018-03-21T12:06:17Z</time>
      </trkpt>
      <trkpt lat="46.82469" lon="-2.06142">
        <ele>2</ele>
        <time>2018-03-21T12:07:17Z</time>
      </trkpt>
      <trkpt lat="46.82447" lon="-2.06147">
        <ele>1.7</ele>
        <time>2018-03-21T12:08:17Z</time>
      </trkpt>
      <trkpt lat="46.82424" lon="-2.06158">
        <ele>1.6</ele>
        <time>2018-03-21T12:09:17Z</time>
      </trkpt>
      <trkpt lat="46.82201" lon="-2.06286">
        <ele>2</ele>
        <time>2018-03-21T12:10:17Z</time>
      </trkpt>
      <trkpt lat="46.8215" lon="-2.06305">
        <ele>2</ele>
        <time>2018-03-21T12:11:17Z</time>
      </trkpt>
      <trkpt lat="46.82014" lon="-2.06323">
        <ele>1</ele>
        <time>2018-03-21T12:12:17Z</time>
      </trkpt>
      <trkpt lat="46.81949" lon="-2.06335">
        <ele>1</ele>
        <time>2018-03-21T12:13:17Z</time>
      </trkpt>
      <trkpt lat="46.81812" lon="-2.06365">
        <ele>1</ele>
        <time>2018-03-21T12:14:17Z</time>
      </trkpt>
      <trkpt lat="46.81644" lon="-2.0641">
        <ele>1.4</ele>
        <time>2018-03-21T12:15:17Z</time>
      </trkpt>
      <trkpt lat="46.81616" lon="-2.06414">
        <ele>1.8</ele>
        <time>2018-03-21T12:16:17Z</time>
      </trkpt>
      <trkpt lat="46.81576" lon="-2.0641">
        <ele>2</ele>
        <time>2018-03-21T12:17:17Z</time>
      </trkpt>
      <trkpt lat="46.81409" lon="-2.06365">
        <ele>1</ele>
        <time>2018-03-21T12:18:17Z</time>
      </trkpt>
      <trkpt lat="46.81249" lon="-2.06318">
        <ele>2</ele>
        <time>2018-03-21T12:19:17Z</time>
      </trkpt>
      <trkpt lat="46.81218" lon="-2.06311">
        <ele>2</ele>
        <time>2018-03-21T12:20:17Z</time>
      </trkpt>
      <trkpt lat="46.81065" lon="-2.06315">
        <ele>1</ele>
        <time>2018-03-21T12:21:17Z</time>
      </trkpt>
      <trkpt lat="46.80882" lon="-2.06332">
        <ele>1</ele>
        <time>2018-03-21T12:22:17Z</time>
      </trkpt>
      <trkpt lat="46.8085" lon="-2.06337">
        <ele>1</ele>
        <time>2018-03-21T12:23:17Z</time>
      </trkpt>
      <trkpt lat="46.80826" lon="-2.06348">
        <ele>1</ele>
        <time>2018-03-21T12:24:17Z</time>
      </trkpt>
      <trkpt lat="46.80801" lon="-2.06362">
        <ele>1</ele>
        <time>2018-03-21T12:25:17Z</time>
      </trkpt>
      <trkpt lat="46.80653" lon="-2.06456">
        <ele>2</ele>
        <time>2018-03-21T12:26:17Z</time>
      </trkpt>
      <trkpt lat="46.80603" lon="-2.06495">
        <ele>2</ele>
        <time>2018-03-21T12:27:17Z</time>
      </trkpt>
      <trkpt lat="46.80493" lon="-2.06564">
        <ele>1</ele>
        <time>2018-03-21T12:28:17Z</time>
      </trkpt>
      <trkpt lat="46.80397" lon="-2.06633">
        <ele>1</ele>
        <time>2018-03-21T12:29:17Z</time>
      </trkpt>
      <trkpt lat="46.80364" lon="-2.06654">
        <ele>2</ele>
        <time>2018-03-21T12:30:17Z</time>
      </trkpt>
      <trkpt lat="46.80339" lon="-2.06666">
        <ele>2</ele>
        <time>2018-03-21T12:31:17Z</time>
      </trkpt>
      <trkpt lat="46.80314" lon="-2.06674">
        <ele>2</ele>
        <time>2018-03-21T12:32:17Z</time>
      </trkpt>
      <trkpt lat="46.80236" lon="-2.06681">
        <ele>1</ele>
        <time>2018-03-21T12:33:17Z</time>
      </trkpt>
      <trkpt lat="46.80213" lon="-2.06691">
        <ele>1</ele>
        <time>2018-03-21T12:34:17Z</time>
      </trkpt>
      <trkpt lat="46.8018" lon="-2.0671">
        <ele>1</ele>
        <time>2018-03-21T12:35:17Z</time>
      </trkpt>
      <trkpt lat="46.80172" lon="-2.06711">
        <ele>1</ele>
        <time>2018-03-21T12:36:17Z</time>
      </trkpt>
      <trkpt lat="46.80163" lon="-2.06707">
        <ele>1</ele>
        <time>2018-03-21T12:37:17Z</time>
      </trkpt>
      <trkpt lat="46.80144" lon="-2.06705">
        <ele>1</ele>
        <time>2018-03-21T12:38:17Z</time>
      </trkpt>
      <trkpt lat="46.80126" lon="-2.06697">
        <ele>1</ele>
        <time>2018-03-21T12:39:17Z</time>
      </trkpt>
      <trkpt lat="46.80119" lon="-2.06708">
        <ele>1</ele>
        <time>2018-03-21T12:40:17Z</time>
      </trkpt>
      <trkpt lat="46.80099" lon="-2.06732">
        <ele>1</ele>
        <time>2018-03-21T12:41:17Z</time>
      </trkpt>
      <trkpt lat="46.80086" lon="-2.0674">
        <ele>1</ele>
        <time>2018-03-21T12:42:17Z</time>
      </trkpt>
      <trkpt lat="46.80069" lon="-2.06744">
        <ele>1</ele>
        <time>2018-03-21T12:43:17Z</time>
      </trkpt>
      <trkpt lat="46.80017" lon="-2.06763">
        <ele>1</ele>
        <time>2018-03-21T12:44:17Z</time>
      </trkpt>
      <trkpt lat="46.80009" lon="-2.06773">
        <ele>1</ele>
        <time>2018-03-21T12:45:17Z</time>
      </trkpt>
      <trkpt lat="46.80008" lon="-2.06779">
        <ele>1</ele>
        <time>2018-03-21T12:46:17Z</time>
      </trkpt>
      <trkpt lat="46.80004" lon="-2.06786">
        <ele>1</ele>
        <time>2018-03-21T12:47:17Z</time>
      </trkpt>
      <trkpt lat="46.79996" lon="-2.06788">
        <ele>1</ele>
        <time>2018-03-21T12:48:17Z</time>
      </trkpt>
      <trkpt lat="46.79991" lon="-2.06783">
        <ele>1</ele>
        <time>2018-03-21T12:49:17Z</time>
      </trkpt>
      <trkpt lat="46.79981" lon="-2.0678">
        <ele>2.3</ele>
        <time>2018-03-21T12:50:17Z</time>
      </trkpt>
      <trkpt lat="46.79938" lon="-2.06802">
        <ele>2</ele>
        <time>2018-03-21T12:51:17Z</time>
      </trkpt>
      <trkpt lat="46.79856" lon="-2.0685">
        <ele>2</ele>
        <time>2018-03-21T12:52:17Z</time>
      </trkpt>
      <trkpt lat="46.79766" lon="-2.06906">
        <ele>3</ele>
        <time>2018-03-21T12:53:17Z</time>
      </trkpt>
      <trkpt lat="46.79766" lon="-2.06906">
        <ele>3</ele>
        <time>2018-03-21T12:54:17Z</time>
      </trkpt>
      <trkpt lat="46.797" lon="-2.06942">
        <ele>3</ele>
        <time>2018-03-21T12:55:17Z</time>
      </trkpt>
      <trkpt lat="46.79694" lon="-2.06948">
        <ele>4</ele>
        <time>2018-03-21T12:56:17Z</time>
      </trkpt>
      <trkpt lat="46.79676" lon="-2.0696">
        <ele>4</ele>
        <time>2018-03-21T12:57:17Z</time>
      </trkpt>
      <trkpt lat="46.79672" lon="-2.06966">
        <ele>4</ele>
        <time>2018-03-21T12:58:17Z</time>
      </trkpt>
      <trkpt lat="46.79668" lon="-2.06979">
        <ele>4</ele>
        <time>2018-03-21T12:59:17Z</time>
      </trkpt>
      <trkpt lat="46.79663" lon="-2.06983">
        <ele>4</ele>
        <time>2018-03-21T13:00:17Z</time>
      </trkpt>
      <trkpt lat="46.79659" lon="-2.06984">
        <ele>4</ele>
        <time>2018-03-21T13:01:17Z</time>
      </trkpt>
      <trkpt lat="46.79654" lon="-2.06982">
        <ele>4</ele>
        <time>2018-03-21T13:02:17Z</time>
      </trkpt>
      <trkpt lat="46.79649" lon="-2.06973">
        <ele>4</ele>
        <time>2018-03-21T13:03:17Z</time>
      </trkpt>
      <trkpt lat="46.79648" lon="-2.06968">
        <ele>4</ele>
        <time>2018-03-21T13:04:17Z</time>
      </trkpt>
      <trkpt lat="46.79631" lon="-2.06957">
        <ele>5</ele>
        <time>2018-03-21T13:05:17Z</time>
      </trkpt>
      <trkpt lat="46.79624" lon="-2.06946">
        <ele>5</ele>
        <time>2018-03-21T13:06:17Z</time>
      </trkpt>
      <trkpt lat="46.79621" lon="-2.06937">
        <ele>5</ele>
        <time>2018-03-21T13:07:17Z</time>
      </trkpt>
      <trkpt lat="46.79523" lon="-2.06794">
        <ele>5</ele>
        <time>2018-03-21T13:08:17Z</time>
      </trkpt>
      <trkpt lat="46.79512" lon="-2.0678">
        <ele>5</ele>
        <time>2018-03-21T13:09:17Z</time>
      </trkpt>
      <trkpt lat="46.79505" lon="-2.06779">
        <ele>5</ele>
        <time>2018-03-21T13:10:17Z</time>
      </trkpt>
      <trkpt lat="46.79492" lon="-2.06771">
        <ele>5</ele>
        <time>2018-03-21T13:11:17Z</time>
      </trkpt>
      <trkpt lat="46.79479" lon="-2.06769">
        <ele>5</ele>
        <time>2018-03-21T13:12:17Z</time>
      </trkpt>
      <trkpt lat="46.79462" lon="-2.06763">
        <ele>5</ele>
        <time>2018-03-21T13:13:17Z</time>
      </trkpt>
      <trkpt lat="46.79315" lon="-2.0674">
        <ele>6</ele>
        <time>2018-03-21T13:14:17Z</time>
      </trkpt>
      <trkpt lat="46.79234" lon="-2.0673">
        <ele>9</ele>
        <time>2018-03-21T13:15:17Z</time>
      </trkpt>
      <trkpt lat="46.79219" lon="-2.06725">
        <ele>10</ele>
        <time>2018-03-21T13:16:17Z</time>
      </trkpt>
      <trkpt lat="46.79191" lon="-2.06703">
        <ele>11</ele>
        <time>2018-03-21T13:17:17Z</time>
      </trkpt>
      <trkpt lat="46.7917" lon="-2.06693">
        <ele>11</ele>
        <time>2018-03-21T13:18:17Z</time>
      </trkpt>
      <trkpt lat="46.79151" lon="-2.06693">
        <ele>13</ele>
        <time>2018-03-21T13:19:17Z</time>
      </trkpt>
      <trkpt lat="46.79145" lon="-2.06688">
        <ele>13</ele>
        <time>2018-03-21T13:20:17Z</time>
      </trkpt>
      <trkpt lat="46.79142" lon="-2.06682">
        <ele>13</ele>
        <time>2018-03-21T13:21:17Z</time>
      </trkpt>
      <trkpt lat="46.79141" lon="-2.06674">
        <ele>13</ele>
        <time>2018-03-21T13:22:17Z</time>
      </trkpt>
      <trkpt lat="46.79144" lon="-2.06661">
        <ele>13</ele>
        <time>2018-03-21T13:23:17Z</time>
      </trkpt>
      <trkpt lat="46.79145" lon="-2.06644">
        <ele>12</ele>
        <time>2018-03-21T13:24:17Z</time>
      </trkpt>
      <trkpt lat="46.79145" lon="-2.06631">
        <ele>12</ele>
        <time>2018-03-21T13:25:17Z</time>
      </trkpt>
      <trkpt lat="46.79141" lon="-2.06617">
        <ele>12</ele>
        <time>2018-03-21T13:26:17Z</time>
      </trkpt>
      <trkpt lat="46.79102" lon="-2.0651">
        <ele>14</ele>
        <time>2018-03-21T13:27:17Z</time>
      </trkpt>
      <trkpt lat="46.79096" lon="-2.06498">
        <ele>14</ele>
        <time>2018-03-21T13:28:17Z</time>
      </trkpt>
      <trkpt lat="46.79089" lon="-2.06488">
        <ele>14</ele>
        <time>2018-03-21T13:29:17Z</time>
      </trkpt>
      <trkpt lat="46.79083" lon="-2.06484">
        <ele>14</ele>
        <time>2018-03-21T13:30:17Z</time>
      </trkpt>
      <trkpt lat="46.7908" lon="-2.06479">
        <ele>14</ele>
        <time>2018-03-21T13:31:17Z</time>
      </trkpt>
      <trkpt lat="46.79077" lon="-2.06451">
        <ele>14</ele>
        <time>2018-03-21T13:32:17Z</time>
      </trkpt>
      <trkpt lat="46.7907" lon="-2.06422">
        <ele>13</ele>
        <time>2018-03-21T13:33:17Z</time>
      </trkpt>
      <trkpt lat="46.79045" lon="-2.06352">
        <ele>13</ele>
        <time>2018-03-21T13:34:17Z</time>
      </trkpt>
      <trkpt lat="46.79031" lon="-2.06293">
        <ele>12</ele>
        <time>2018-03-21T13:35:17Z</time>
      </trkpt>
      <trkpt lat="46.79024" lon="-2.06272">
        <ele>11</ele>
        <time>2018-03-21T13:36:17Z</time>
      </trkpt>
      <trkpt lat="46.79018" lon="-2.06266">
        <ele>11</ele>
        <time>2018-03-21T13:37:17Z</time>
      </trkpt>
      <trkpt lat="46.79014" lon="-2.06257">
        <ele>11</ele>
        <time>2018-03-21T13:38:17Z</time>
      </trkpt>
      <trkpt lat="46.79012" lon="-2.06246">
        <ele>11</ele>
        <time>2018-03-21T13:39:17Z</time>
      </trkpt>
      <trkpt lat="46.79014" lon="-2.06233">
        <ele>11</ele>
        <time>2018-03-21T13:40:17Z</time>
      </trkpt>
      <trkpt lat="46.79019" lon="-2.06222">
        <ele>11</ele>
        <time>2018-03-21T13:41:17Z</time>
      </trkpt>
      <trkpt lat="46.79024" lon="-2.06218">
        <ele>11</ele>
        <time>2018-03-21T13:42:17Z</time>
      </trkpt>
      <trkpt lat="46.79029" lon="-2.06193">
        <ele>11</ele>
        <time>2018-03-21T13:43:17Z</time>
      </trkpt>
      <trkpt lat="46.79035" lon="-2.06154">
        <ele>10</ele>
        <time>2018-03-21T13:44:17Z</time>
      </trkpt>
      <trkpt lat="46.79039" lon="-2.06091">
        <ele>9</ele>
        <time>2018-03-21T13:45:17Z</time>
      </trkpt>
      <trkpt lat="46.79037" lon="-2.05847">
        <ele>9</ele>
        <time>2018-03-21T13:46:17Z</time>
      </trkpt>
      <trkpt lat="46.7904" lon="-2.05795">
        <ele>10</ele>
        <time>2018-03-21T13:47:17Z</time>
      </trkpt>
      <trkpt lat="46.79045" lon="-2.0577">
        <ele>10</ele>
        <time>2018-03-21T13:48:17Z</time>
      </trkpt>
      <trkpt lat="46.79072" lon="-2.05668">
        <ele>4</ele>
        <time>2018-03-21T13:49:17Z</time>
      </trkpt>
      <trkpt lat="46.79074" lon="-2.05652">
        <ele>4</ele>
        <time>2018-03-21T13:50:17Z</time>
      </trkpt>
      <trkpt lat="46.79079" lon="-2.05628">
        <ele>4</ele>
        <time>2018-03-21T13:51:17Z</time>
      </trkpt>
      <trkpt lat="46.79087" lon="-2.0561">
        <ele>4</ele>
        <time>2018-03-21T13:52:17Z</time>
      </trkpt>
      <trkpt lat="46.79091" lon="-2.056">
        <ele>4</ele>
        <time>2018-03-21T13:53:17Z</time>
      </trkpt>
      <trkpt lat="46.79091" lon="-2.05593">
        <ele>4</ele>
        <time>2018-03-21T13:54:17Z</time>
      </trkpt>
      <trkpt lat="46.79096" lon="-2.05583">
        <ele>4</ele>
        <time>2018-03-21T13:55:17Z</time>
      </trkpt>
      <trkpt lat="46.79099" lon="-2.0556">
        <ele>3</ele>
        <time>2018-03-21T13:56:17Z</time>
      </trkpt>
      <trkpt lat="46.791" lon="-2.05543">
        <ele>3</ele>
        <time>2018-03-21T13:57:17Z</time>
      </trkpt>
      <trkpt lat="46.79099" lon="-2.05533">
        <ele>3</ele>
        <time>2018-03-21T13:58:17Z</time>
      </trkpt>
      <trkpt lat="46.79094" lon="-2.05526">
        <ele>3</ele>
        <time>2018-03-21T13:59:17Z</time>
      </trkpt>
      <trkpt lat="46.79085" lon="-2.05502">
        <ele>3</ele>
        <time>2018-03-21T14:00:17Z</time>
      </trkpt>
      <trkpt lat="46.79059" lon="-2.05453">
        <ele>3</ele>
        <time>2018-03-21T14:01:17Z</time>
      </trkpt>
      <trkpt lat="46.7897" lon="-2.05176">
        <ele>4</ele>
        <time>2018-03-21T14:02:17Z</time>
      </trkpt>
      <trkpt lat="46.78926" lon="-2.05064">
        <ele>3</ele>
        <time>2018-03-21T14:03:17Z</time>
      </trkpt>
      <trkpt lat="46.78867" lon="-2.04923">
        <ele>5</ele>
        <time>2018-03-21T14:04:17Z</time>
      </trkpt>
      <trkpt lat="46.78788" lon="-2.04669">
        <ele>7</ele>
        <time>2018-03-21T14:05:17Z</time>
      </trkpt>
      <trkpt lat="46.78682" lon="-2.04414">
        <ele>7</ele>
        <time>2018-03-21T14:06:17Z</time>
      </trkpt>
      <trkpt lat="46.78632" lon="-2.04266">
        <ele>5</ele>
        <time>2018-03-21T14:07:17Z</time>
      </trkpt>
      <trkpt lat="46.78576" lon="-2.04132">
        <ele>5</ele>
        <time>2018-03-21T14:08:17Z</time>
      </trkpt>
      <trkpt lat="46.78556" lon="-2.04056">
        <ele>6</ele>
        <time>2018-03-21T14:09:17Z</time>
      </trkpt>
      <trkpt lat="46.78556" lon="-2.04056">
        <ele>6</ele>
        <time>2018-03-21T14:10:17Z</time>
      </trkpt>
      <trkpt lat="46.78539" lon="-2.03991">
        <ele>7</ele>
        <time>2018-03-21T14:11:17Z</time>
      </trkpt>
      <trkpt lat="46.78496" lon="-2.03875">
        <ele>6</ele>
        <time>2018-03-21T14:12:17Z</time>
      </trkpt>
      <trkpt lat="46.78465" lon="-2.0378">
        <ele>6</ele>
        <time>2018-03-21T14:13:17Z</time>
      </trkpt>
      <trkpt lat="46.78403" lon="-2.03631">
        <ele>7</ele>
        <time>2018-03-21T14:14:17Z</time>
      </trkpt>
      <trkpt lat="46.78325" lon="-2.03684">
        <ele>10</ele>
        <time>2018-03-21T14:15:17Z</time>
      </trkpt>
      <trkpt lat="46.78254" lon="-2.03757">
        <ele>10</ele>
        <time>2018-03-21T14:16:17Z</time>
      </trkpt>
      <trkpt lat="46.78234" lon="-2.03785">
        <ele>10</ele>
        <time>2018-03-21T14:17:17Z</time>
      </trkpt>
      <trkpt lat="46.78237" lon="-2.03791">
        <ele>10</ele>
        <time>2018-03-21T14:18:17Z</time>
      </trkpt>
      <trkpt lat="46.78235" lon="-2.03799">
        <ele>10</ele>
        <time>2018-03-21T14:19:17Z</time>
      </trkpt>
      <trkpt lat="46.7823" lon="-2.03801">
        <ele>9</ele>
        <time>2018-03-21T14:20:17Z</time>
      </trkpt>
      <trkpt lat="46.78225" lon="-2.03797">
        <ele>9</ele>
        <time>2018-03-21T14:21:17Z</time>
      </trkpt>
      <trkpt lat="46.78225" lon="-2.03788">
        <ele>9</ele>
        <time>2018-03-21T14:22:17Z</time>
      </trkpt>
      <trkpt lat="46.78218" lon="-2.03789">
        <ele>9</ele>
        <time>2018-03-21T14:23:17Z</time>
      </trkpt>
      <trkpt lat="46.78128" lon="-2.03842">
        <ele>6</ele>
        <time>2018-03-21T14:24:17Z</time>
      </trkpt>
      <trkpt lat="46.78116" lon="-2.03846">
        <ele>6</ele>
        <time>2018-03-21T14:25:17Z</time>
      </trkpt>
      <trkpt lat="46.78115" lon="-2.0385">
        <ele>6</ele>
        <time>2018-03-21T14:26:17Z</time>
      </trkpt>
      <trkpt lat="46.78109" lon="-2.03853">
        <ele>6</ele>
        <time>2018-03-21T14:27:17Z</time>
      </trkpt>
      <trkpt lat="46.78106" lon="-2.03851">
        <ele>5</ele>
        <time>2018-03-21T14:28:17Z</time>
      </trkpt>
      <trkpt lat="46.78098" lon="-2.0386">
        <ele>5</ele>
        <time>2018-03-21T14:29:17Z</time>
      </trkpt>
      <trkpt lat="46.78009" lon="-2.03913">
        <ele>3</ele>
        <time>2018-03-21T14:30:17Z</time>
      </trkpt>
      <trkpt lat="46.78002" lon="-2.03919">
        <ele>3</ele>
        <time>2018-03-21T14:31:17Z</time>
      </trkpt>
      <trkpt lat="46.78003" lon="-2.03923">
        <ele>3</ele>
        <time>2018-03-21T14:32:17Z</time>
      </trkpt>
      <trkpt lat="46.78" lon="-2.03932">
        <ele>3</ele>
        <time>2018-03-21T14:33:17Z</time>
      </trkpt>
      <trkpt lat="46.77997" lon="-2.03933">
        <ele>3</ele>
        <time>2018-03-21T14:34:17Z</time>
      </trkpt>
      <trkpt lat="46.77993" lon="-2.03932">
        <ele>3</ele>
        <time>2018-03-21T14:35:17Z</time>
      </trkpt>
      <trkpt lat="46.77991" lon="-2.03927">
        <ele>3</ele>
        <time>2018-03-21T14:36:17Z</time>
      </trkpt>
      <trkpt lat="46.7799" lon="-2.03922">
        <ele>3</ele>
        <time>2018-03-21T14:37:17Z</time>
      </trkpt>
      <trkpt lat="46.77976" lon="-2.03919">
        <ele>3</ele>
        <time>2018-03-21T14:38:17Z</time>
      </trkpt>
      <trkpt lat="46.77954" lon="-2.03926">
        <ele>2</ele>
        <time>2018-03-21T14:39:17Z</time>
      </trkpt>
      <trkpt lat="46.77939" lon="-2.03934">
        <ele>2</ele>
        <time>2018-03-21T14:40:17Z</time>
      </trkpt>
      <trkpt lat="46.77914" lon="-2.03938">
        <ele>2</ele>
        <time>2018-03-21T14:41:17Z</time>
      </trkpt>
      <trkpt lat="46.77894" lon="-2.03935">
        <ele>2</ele>
        <time>2018-03-21T14:42:17Z</time>
      </trkpt>
      <trkpt lat="46.77813" lon="-2.03886">
        <ele>3</ele>
        <time>2018-03-21T14:43:17Z</time>
      </trkpt>
      <trkpt lat="46.77653" lon="-2.03804">
        <ele>3</ele>
        <time>2018-03-21T14:44:17Z</time>
      </trkpt>
      <trkpt lat="46.77593" lon="-2.03784">
        <ele>4</ele>
        <time>2018-03-21T14:45:17Z</time>
      </trkpt>
      <trkpt lat="46.77375" lon="-2.03704">
        <ele>5</ele>
        <time>2018-03-21T14:46:17Z</time>
      </trkpt>
      <trkpt lat="46.77356" lon="-2.03696">
        <ele>5</ele>
        <time>2018-03-21T14:47:17Z</time>
      </trkpt>
      <trkpt lat="46.77331" lon="-2.0368">
        <ele>5</ele>
        <time>2018-03-21T14:48:17Z</time>
      </trkpt>
      <trkpt lat="46.77295" lon="-2.03641">
        <ele>6</ele>
        <time>2018-03-21T14:49:17Z</time>
      </trkpt>
      <trkpt lat="46.77251" lon="-2.03585">
        <ele>6</ele>
        <time>2018-03-21T14:50:17Z</time>
      </trkpt>
      <trkpt lat="46.77156" lon="-2.03422">
        <ele>3</ele>
        <time>2018-03-21T14:51:17Z</time>
      </trkpt>
      <trkpt lat="46.7712" lon="-2.03355">
        <ele>2</ele>
        <time>2018-03-21T14:52:17Z</time>
      </trkpt>
      <trkpt lat="46.77039" lon="-2.03192">
        <ele>4</ele>
        <time>2018-03-21T14:53:17Z</time>
      </trkpt>
      <trkpt lat="46.77014" lon="-2.03172">
        <ele>5</ele>
        <time>2018-03-21T14:54:17Z</time>
      </trkpt>
      <trkpt lat="46.77004" lon="-2.03172">
        <ele>5</ele>
        <time>2018-03-21T14:55:17Z</time>
      </trkpt>
      <trkpt lat="46.76984" lon="-2.03186">
        <ele>4</ele>
        <time>2018-03-21T14:56:17Z</time>
      </trkpt>
      <trkpt lat="46.7697" lon="-2.03204">
        <ele>4</ele>
        <time>2018-03-21T14:57:17Z</time>
      </trkpt>
      <trkpt lat="46.76876" lon="-2.03368">
        <ele>4</ele>
        <time>2018-03-21T14:58:17Z</time>
      </trkpt>
      <trkpt lat="46.76807" lon="-2.03422">
        <ele>6</ele>
        <time>2018-03-21T14:59:17Z</time>
      </trkpt>
      <trkpt lat="46.76785" lon="-2.03445">
        <ele>6</ele>
        <time>2018-03-21T15:00:17Z</time>
      </trkpt>
      <trkpt lat="46.76721" lon="-2.03547">
        <ele>8</ele>
        <time>2018-03-21T15:01:17Z</time>
      </trkpt>
      <trkpt lat="46.76709" lon="-2.03562">
        <ele>9</ele>
        <time>2018-03-21T15:02:17Z</time>
      </trkpt>
      <trkpt lat="46.76681" lon="-2.03591">
        <ele>10</ele>
        <time>2018-03-21T15:03:17Z</time>
      </trkpt>
      <trkpt lat="46.76551" lon="-2.03498">
        <ele>9</ele>
        <time>2018-03-21T15:04:17Z</time>
      </trkpt>
      <trkpt lat="46.76529" lon="-2.03468">
        <ele>9</ele>
        <time>2018-03-21T15:05:17Z</time>
      </trkpt>
      <trkpt lat="46.76502" lon="-2.03404">
        <ele>8</ele>
        <time>2018-03-21T15:06:17Z</time>
      </trkpt>
      <trkpt lat="46.76491" lon="-2.03365">
        <ele>7</ele>
        <time>2018-03-21T15:07:17Z</time>
      </trkpt>
      <trkpt lat="46.76488" lon="-2.03347">
        <ele>7</ele>
        <time>2018-03-21T15:08:17Z</time>
      </trkpt>
      <trkpt lat="46.76465" lon="-2.03297">
        <ele>7</ele>
        <time>2018-03-21T15:09:17Z</time>
      </trkpt>
      <trkpt lat="46.764" lon="-2.0317">
        <ele>8</ele>
        <time>2018-03-21T15:10:17Z</time>
      </trkpt>
      <trkpt lat="46.76385" lon="-2.03135">
        <ele>8</ele>
        <time>2018-03-21T15:11:17Z</time>
      </trkpt>
      <trkpt lat="46.76379" lon="-2.03109">
        <ele>8</ele>
        <time>2018-03-21T15:12:17Z</time>
      </trkpt>
      <trkpt lat="46.76377" lon="-2.03095">
        <ele>8</ele>
        <time>2018-03-21T15:13:17Z</time>
      </trkpt>
      <trkpt lat="46.76375" lon="-2.03034">
        <ele>8</ele>
        <time>2018-03-21T15:14:17Z</time>
      </trkpt>
      <trkpt lat="46.76372" lon="-2.02996">
        <ele>9</ele>
        <time>2018-03-21T15:15:17Z</time>
      </trkpt>
      <trkpt lat="46.76364" lon="-2.02962">
        <ele>9</ele>
        <time>2018-03-21T15:16:17Z</time>
      </trkpt>
      <trkpt lat="46.76359" lon="-2.02948">
        <ele>9</ele>
        <time>2018-03-21T15:17:17Z</time>
      </trkpt>
      <trkpt lat="46.76346" lon="-2.02919">
        <ele>9</ele>
        <time>2018-03-21T15:18:17Z</time>
      </trkpt>
      <trkpt lat="46.76326" lon="-2.02895">
        <ele>9</ele>
        <time>2018-03-21T15:19:17Z</time>
      </trkpt>
      <trkpt lat="46.76267" lon="-2.02853">
        <ele>8</ele>
        <time>2018-03-21T15:20:17Z</time>
      </trkpt>
      <trkpt lat="46.7625" lon="-2.02835">
        <ele>7</ele>
        <time>2018-03-21T15:21:17Z</time>
      </trkpt>
      <trkpt lat="46.76216" lon="-2.02794">
        <ele>8</ele>
        <time>2018-03-21T15:22:17Z</time>
      </trkpt>
      <trkpt lat="46.7607" lon="-2.02674">
        <ele>7</ele>
        <time>2018-03-21T15:23:17Z</time>
      </trkpt>
      <trkpt lat="46.76052" lon="-2.02655">
        <ele>7</ele>
        <time>2018-03-21T15:24:17Z</time>
      </trkpt>
      <trkpt lat="46.75986" lon="-2.02565">
        <ele>6</ele>
        <time>2018-03-21T15:25:17Z</time>
      </trkpt>
      <trkpt lat="46.75974" lon="-2.02555">
        <ele>6</ele>
        <time>2018-03-21T15:26:17Z</time>
      </trkpt>
      <trkpt lat="46.75954" lon="-2.02527">
        <ele>6</ele>
        <time>2018-03-21T15:27:17Z</time>
      </trkpt>
      <trkpt lat="46.75942" lon="-2.02518">
        <ele>6</ele>
        <time>2018-03-21T15:28:17Z</time>
      </trkpt>
      <trkpt lat="46.75897" lon="-2.02497">
        <ele>6</ele>
        <time>2018-03-21T15:29:17Z</time>
      </trkpt>
      <trkpt lat="46.75862" lon="-2.02485">
        <ele>6</ele>
        <time>2018-03-21T15:30:17Z</time>
      </trkpt>
      <trkpt lat="46.75852" lon="-2.02482">
        <ele>6</ele>
        <time>2018-03-21T15:31:17Z</time>
      </trkpt>
      <trkpt lat="46.75804" lon="-2.02477">
        <ele>6</ele>
        <time>2018-03-21T15:32:17Z</time>
      </trkpt>
      <trkpt lat="46.75802" lon="-2.02482">
        <ele>6</ele>
        <time>2018-03-21T15:33:17Z</time>
      </trkpt>
      <trkpt lat="46.75797" lon="-2.02484">
        <ele>5</ele>
        <time>2018-03-21T15:34:17Z</time>
      </trkpt>
      <trkpt lat="46.75793" lon="-2.02478">
        <ele>5</ele>
        <time>2018-03-21T15:35:17Z</time>
      </trkpt>
      <trkpt lat="46.75793" lon="-2.02474">
        <ele>5</ele>
        <time>2018-03-21T15:36:17Z</time>
      </trkpt>
      <trkpt lat="46.75739" lon="-2.02462">
        <ele>5</ele>
        <time>2018-03-21T15:37:17Z</time>
      </trkpt>
      <trkpt lat="46.75723" lon="-2.02453">
        <ele>4</ele>
        <time>2018-03-21T15:38:17Z</time>
      </trkpt>
      <trkpt lat="46.75652" lon="-2.02359">
        <ele>4</ele>
        <time>2018-03-21T15:39:17Z</time>
      </trkpt>
      <trkpt lat="46.75641" lon="-2.02348">
        <ele>4</ele>
        <time>2018-03-21T15:40:17Z</time>
      </trkpt>
      <trkpt lat="46.75596" lon="-2.02307">
        <ele>1</ele>
        <time>2018-03-21T15:41:17Z</time>
      </trkpt>
      <trkpt lat="46.75553" lon="-2.02273">
        <ele>1</ele>
        <time>2018-03-21T15:42:17Z</time>
      </trkpt>
      <trkpt lat="46.75524" lon="-2.02255">
        <ele>1</ele>
        <time>2018-03-21T15:43:17Z</time>
      </trkpt>
      <trkpt lat="46.75508" lon="-2.02233">
        <ele>1</ele>
        <time>2018-03-21T15:44:17Z</time>
      </trkpt>
      <trkpt lat="46.75495" lon="-2.02206">
        <ele>2</ele>
        <time>2018-03-21T15:45:17Z</time>
      </trkpt>
      <trkpt lat="46.75476" lon="-2.02139">
        <ele>2</ele>
        <time>2018-03-21T15:46:17Z</time>
      </trkpt>
      <trkpt lat="46.75462" lon="-2.02107">
        <ele>3</ele>
        <time>2018-03-21T15:47:17Z</time>
      </trkpt>
      <trkpt lat="46.75398" lon="-2.02021">
        <ele>2</ele>
        <time>2018-03-21T15:48:17Z</time>
      </trkpt>
      <trkpt lat="46.75358" lon="-2.01974">
        <ele>3</ele>
        <time>2018-03-21T15:49:17Z</time>
      </trkpt>
      <trkpt lat="46.75286" lon="-2.01857">
        <ele>2</ele>
        <time>2018-03-21T15:50:17Z</time>
      </trkpt>
      <trkpt lat="46.75253" lon="-2.01814">
        <ele>2</ele>
        <time>2018-03-21T15:51:17Z</time>
      </trkpt>
      <trkpt lat="46.75173" lon="-2.017">
        <ele>4</ele>
        <time>2018-03-21T15:52:17Z</time>
      </trkpt>
      <trkpt lat="46.7513" lon="-2.01625">
        <ele>4</ele>
        <time>2018-03-21T15:53:17Z</time>
      </trkpt>
      <trkpt lat="46.75122" lon="-2.01628">
        <ele>4</ele>
        <time>2018-03-21T15:54:17Z</time>
      </trkpt>
      <trkpt lat="46.75116" lon="-2.01626">
        <ele>4</ele>
        <time>2018-03-21T15:55:17Z</time>
      </trkpt>
      <trkpt lat="46.75111" lon="-2.01621">
        <ele>4</ele>
        <time>2018-03-21T15:56:17Z</time>
      </trkpt>
      <trkpt lat="46.75109" lon="-2.01614">
        <ele>4</ele>
        <time>2018-03-21T15:57:17Z</time>
      </trkpt>
      <trkpt lat="46.75108" lon="-2.01606">
        <ele>4</ele>
        <time>2018-03-21T15:58:17Z</time>
      </trkpt>
      <trkpt lat="46.75111" lon="-2.01593">
        <ele>3</ele>
        <time>2018-03-21T15:59:17Z</time>
      </trkpt>
      <trkpt lat="46.75093" lon="-2.01579">
        <ele>4</ele>
        <time>2018-03-21T16:00:17Z</time>
      </trkpt>
      <trkpt lat="46.75062" lon="-2.01541">
        <ele>4</ele>
        <time>2018-03-21T16:01:17Z</time>
      </trkpt>
      <trkpt lat="46.75018" lon="-2.01479">
        <ele>4</ele>
        <time>2018-03-21T16:02:17Z</time>
      </trkpt>
      <trkpt lat="46.74971" lon="-2.01393">
        <ele>5</ele>
        <time>2018-03-21T16:03:17Z</time>
      </trkpt>
      <trkpt lat="46.74946" lon="-2.0136">
        <ele>6</ele>
        <time>2018-03-21T16:04:17Z</time>
      </trkpt>
      <trkpt lat="46.7493" lon="-2.01347">
        <ele>7</ele>
        <time>2018-03-21T16:05:17Z</time>
      </trkpt>
      <trkpt lat="46.74799" lon="-2.01275">
        <ele>6</ele>
        <time>2018-03-21T16:06:17Z</time>
      </trkpt>
      <trkpt lat="46.74683" lon="-2.012">
        <ele>8</ele>
        <time>2018-03-21T16:07:17Z</time>
      </trkpt>
      <trkpt lat="46.74665" lon="-2.01185">
        <ele>8</ele>
        <time>2018-03-21T16:08:17Z</time>
      </trkpt>
      <trkpt lat="46.74637" lon="-2.01158">
        <ele>8</ele>
        <time>2018-03-21T16:09:17Z</time>
      </trkpt>
      <trkpt lat="46.74527" lon="-2.01027">
        <ele>5</ele>
        <time>2018-03-21T16:10:17Z</time>
      </trkpt>
      <trkpt lat="46.74368" lon="-2.0089">
        <ele>3</ele>
        <time>2018-03-21T16:11:17Z</time>
      </trkpt>
      <trkpt lat="46.74347" lon="-2.00869">
        <ele>3</ele>
        <time>2018-03-21T16:12:17Z</time>
      </trkpt>
      <trkpt lat="46.74334" lon="-2.00852">
        <ele>3</ele>
        <time>2018-03-21T16:13:17Z</time>
      </trkpt>
      <trkpt lat="46.74263" lon="-2.00734">
        <ele>2</ele>
        <time>2018-03-21T16:14:17Z</time>
      </trkpt>
      <trkpt lat="46.74151" lon="-2.00568">
        <ele>3</ele>
        <time>2018-03-21T16:15:17Z</time>
      </trkpt>
      <trkpt lat="46.74116" lon="-2.00521">
        <ele>3</ele>
        <time>2018-03-21T16:16:17Z</time>
      </trkpt>
      <trkpt lat="46.74096" lon="-2.00482">
        <ele>3</ele>
        <time>2018-03-21T16:17:17Z</time>
      </trkpt>
      <trkpt lat="46.74072" lon="-2.00426">
        <ele>3</ele>
        <time>2018-03-21T16:18:17Z</time>
      </trkpt>
      <trkpt lat="46.74066" lon="-2.00407">
        <ele>3</ele>
        <time>2018-03-21T16:19:17Z</time>
      </trkpt>
      <trkpt lat="46.74064" lon="-2.00392">
        <ele>3</ele>
        <time>2018-03-21T16:20:17Z</time>
      </trkpt>
      <trkpt lat="46.74065" lon="-2.00361">
        <ele>3</ele>
        <time>2018-03-21T16:21:17Z</time>
      </trkpt>
      <trkpt lat="46.74081" lon="-2.00289">
        <ele>3</ele>
        <time>2018-03-21T16:22:17Z</time>
      </trkpt>
      <trkpt lat="46.74114" lon="-2.00165">
        <ele>5</ele>
        <time>2018-03-21T16:23:17Z</time>
      </trkpt>
      <trkpt lat="46.74122" lon="-2.00117">
        <ele>6</ele>
        <time>2018-03-21T16:24:17Z</time>
      </trkpt>
      <trkpt lat="46.7413" lon="-2.0006">
        <ele>6</ele>
        <time>2018-03-21T16:25:17Z</time>
      </trkpt>
      <trkpt lat="46.74134" lon="-2.00018">
        <ele>6</ele>
        <time>2018-03-21T16:26:17Z</time>
      </trkpt>
      <trkpt lat="46.74156" lon="-1.99676">
        <ele>5</ele>
        <time>2018-03-21T16:27:17Z</time>
      </trkpt>
      <trkpt lat="46.74166" lon="-1.99622">
        <ele>6</ele>
        <time>2018-03-21T16:28:17Z</time>
      </trkpt>
      <trkpt lat="46.74202" lon="-1.99483">
        <ele>5</ele>
        <time>2018-03-21T16:29:17Z</time>
      </trkpt>
      <trkpt lat="46.7421" lon="-1.99439">
        <ele>5</ele>
        <time>2018-03-21T16:30:17Z</time>
      </trkpt>
      <trkpt lat="46.74215" lon="-1.99395">
        <ele>5</ele>
        <time>2018-03-21T16:31:17Z</time>
      </trkpt>
      <trkpt lat="46.74215" lon="-1.99367">
        <ele>5</ele>
        <time>2018-03-21T16:32:17Z</time>
      </trkpt>
      <trkpt lat="46.74209" lon="-1.99339">
        <ele>5</ele>
        <time>2018-03-21T16:33:17Z</time>
      </trkpt>
      <trkpt lat="46.74202" lon="-1.99322">
        <ele>5</ele>
        <time>2018-03-21T16:34:17Z</time>
      </trkpt>
      <trkpt lat="46.74198" lon="-1.99325">
        <ele>6</ele>
        <time>2018-03-21T16:35:17Z</time>
      </trkpt>
      <trkpt lat="46.74189" lon="-1.99326">
        <ele>6</ele>
        <time>2018-03-21T16:36:17Z</time>
      </trkpt>
      <trkpt lat="46.74182" lon="-1.9932">
        <ele>6</ele>
        <time>2018-03-21T16:37:17Z</time>
      </trkpt>
      <trkpt lat="46.74177" lon="-1.99308">
        <ele>6</ele>
        <time>2018-03-21T16:38:17Z</time>
      </trkpt>
      <trkpt lat="46.74178" lon="-1.99296">
        <ele>5</ele>
        <time>2018-03-21T16:39:17Z</time>
      </trkpt>
      <trkpt lat="46.7418" lon="-1.9929">
        <ele>5</ele>
        <time>2018-03-21T16:40:17Z</time>
      </trkpt>
      <trkpt lat="46.74169" lon="-1.99283">
        <ele>5</ele>
        <time>2018-03-21T16:41:17Z</time>
      </trkpt>
      <trkpt lat="46.7401" lon="-1.99263">
        <ele>9</ele>
        <time>2018-03-21T16:42:17Z</time>
      </trkpt>
      <trkpt lat="46.73969" lon="-1.99248">
        <ele>9</ele>
        <time>2018-03-21T16:43:17Z</time>
      </trkpt>
      <trkpt lat="46.73937" lon="-1.99228">
        <ele>8</ele>
        <time>2018-03-21T16:44:17Z</time>
      </trkpt>
      <trkpt lat="46.73868" lon="-1.99171">
        <ele>7</ele>
        <time>2018-03-21T16:45:17Z</time>
      </trkpt>
      <trkpt lat="46.73718" lon="-1.99022">
        <ele>8</ele>
        <time>2018-03-21T16:46:17Z</time>
      </trkpt>
      <trkpt lat="46.73548" lon="-1.98858">
        <ele>7</ele>
        <time>2018-03-21T16:47:17Z</time>
      </trkpt>
      <trkpt lat="46.7342" lon="-1.98729">
        <ele>9</ele>
        <time>2018-03-21T16:48:17Z</time>
      </trkpt>
      <trkpt lat="46.73407" lon="-1.98711">
        <ele>9</ele>
        <time>2018-03-21T16:49:17Z</time>
      </trkpt>
      <trkpt lat="46.73401" lon="-1.98697">
        <ele>9</ele>
        <time>2018-03-21T16:50:17Z</time>
      </trkpt>
      <trkpt lat="46.73394" lon="-1.98674">
        <ele>9</ele>
        <time>2018-03-21T16:51:17Z</time>
      </trkpt>
      <trkpt lat="46.73389" lon="-1.98647">
        <ele>9</ele>
        <time>2018-03-21T16:52:17Z</time>
      </trkpt>
      <trkpt lat="46.73382" lon="-1.98567">
        <ele>9</ele>
        <time>2018-03-21T16:53:17Z</time>
      </trkpt>
      <trkpt lat="46.73375" lon="-1.9854">
        <ele>9</ele>
        <time>2018-03-21T16:54:17Z</time>
      </trkpt>
      <trkpt lat="46.73366" lon="-1.98516">
        <ele>9</ele>
        <time>2018-03-21T16:55:17Z</time>
      </trkpt>
      <trkpt lat="46.73352" lon="-1.98492">
        <ele>10</ele>
        <time>2018-03-21T16:56:17Z</time>
      </trkpt>
      <trkpt lat="46.73333" lon="-1.98467">
        <ele>10</ele>
        <time>2018-03-21T16:57:17Z</time>
      </trkpt>
      <trkpt lat="46.73184" lon="-1.98324">
        <ele>12</ele>
        <time>2018-03-21T16:58:17Z</time>
      </trkpt>
      <trkpt lat="46.73163" lon="-1.98309">
        <ele>12</ele>
        <time>2018-03-21T16:59:17Z</time>
      </trkpt>
      <trkpt lat="46.72736" lon="-1.98125">
        <ele>11</ele>
        <time>2018-03-21T17:00:17Z</time>
      </trkpt>
      <trkpt lat="46.725" lon="-1.97964">
        <ele>8</ele>
        <time>2018-03-21T17:01:17Z</time>
      </trkpt>
      <trkpt lat="46.72479" lon="-1.97942">
        <ele>8</ele>
        <time>2018-03-21T17:02:17Z</time>
      </trkpt>
      <trkpt lat="46.72452" lon="-1.97911">
        <ele>8</ele>
        <time>2018-03-21T17:03:17Z</time>
      </trkpt>
      <trkpt lat="46.72408" lon="-1.97845">
        <ele>7</ele>
        <time>2018-03-21T17:04:17Z</time>
      </trkpt>
      <trkpt lat="46.72404" lon="-1.97848">
        <ele>7</ele>
        <time>2018-03-21T17:05:17Z</time>
      </trkpt>
      <trkpt lat="46.724" lon="-1.97848">
        <ele>7</ele>
        <time>2018-03-21T17:06:17Z</time>
      </trkpt>
      <trkpt lat="46.72396" lon="-1.97844">
        <ele>7</ele>
        <time>2018-03-21T17:07:17Z</time>
      </trkpt>
      <trkpt lat="46.72394" lon="-1.97837">
        <ele>7</ele>
        <time>2018-03-21T17:08:17Z</time>
      </trkpt>
      <trkpt lat="46.72395" lon="-1.9783">
        <ele>7</ele>
        <time>2018-03-21T17:09:17Z</time>
      </trkpt>
      <trkpt lat="46.72398" lon="-1.97826">
        <ele>7</ele>
        <time>2018-03-21T17:10:17Z</time>
      </trkpt>
      <trkpt lat="46.72077" lon="-1.97262">
        <ele>9</ele>
        <time>2018-03-21T17:11:17Z</time>
      </trkpt>
      <trkpt lat="46.71963" lon="-1.97046">
        <ele>13</ele>
        <time>2018-03-21T17:12:17Z</time>
      </trkpt>
      <trkpt lat="46.71963" lon="-1.97046">
        <ele>13</ele>
        <time>2018-03-21T17:13:17Z</time>
      </trkpt>
      <trkpt lat="46.71876" lon="-1.9688">
        <ele>15</ele>
        <time>2018-03-21T17:14:17Z</time>
      </trkpt>
      <trkpt lat="46.7187" lon="-1.96879">
        <ele>15</ele>
        <time>2018-03-21T17:15:17Z</time>
      </trkpt>
      <trkpt lat="46.71864" lon="-1.96875">
        <ele>15</ele>
        <time>2018-03-21T17:16:17Z</time>
      </trkpt>
      <trkpt lat="46.71846" lon="-1.96871">
        <ele>15</ele>
        <time>2018-03-21T17:17:17Z</time>
      </trkpt>
      <trkpt lat="46.7183" lon="-1.96883">
        <ele>15</ele>
        <time>2018-03-21T17:18:17Z</time>
      </trkpt>
      <trkpt lat="46.71826" lon="-1.96879">
        <ele>14</ele>
        <time>2018-03-21T17:19:17Z</time>
      </trkpt>
      <trkpt lat="46.71832" lon="-1.96862">
        <ele>14</ele>
        <time>2018-03-21T17:20:17Z</time>
      </trkpt>
      <trkpt lat="46.71803" lon="-1.96841">
        <ele>14</ele>
        <time>2018-03-21T17:21:17Z</time>
      </trkpt>
      <trkpt lat="46.71743" lon="-1.96818">
        <ele>13</ele>
        <time>2018-03-21T17:22:17Z</time>
      </trkpt>
      <trkpt lat="46.71702" lon="-1.96789">
        <ele>13</ele>
        <time>2018-03-21T17:23:17Z</time>
      </trkpt>
      <trkpt lat="46.71681" lon="-1.96777">
        <ele>14</ele>
        <time>2018-03-21T17:24:17Z</time>
      </trkpt>
      <trkpt lat="46.71664" lon="-1.96774">
        <ele>14</ele>
        <time>2018-03-21T17:25:17Z</time>
      </trkpt>
      <trkpt lat="46.71649" lon="-1.96774">
        <ele>14</ele>
        <time>2018-03-21T17:26:17Z</time>
      </trkpt>
      <trkpt lat="46.71589" lon="-1.9681">
        <ele>14</ele>
        <time>2018-03-21T17:27:17Z</time>
      </trkpt>
      <trkpt lat="46.71575" lon="-1.96812">
        <ele>14</ele>
        <time>2018-03-21T17:28:17Z</time>
      </trkpt>
      <trkpt lat="46.71527" lon="-1.96809">
        <ele>14</ele>
        <time>2018-03-21T17:29:17Z</time>
      </trkpt>
      <trkpt lat="46.71473" lon="-1.96803">
        <ele>13</ele>
        <time>2018-03-21T17:30:17Z</time>
      </trkpt>
      <trkpt lat="46.71406" lon="-1.96782">
        <ele>14</ele>
        <time>2018-03-21T17:31:17Z</time>
      </trkpt>
      <trkpt lat="46.71401" lon="-1.96782">
        <ele>14</ele>
        <time>2018-03-21T17:32:17Z</time>
      </trkpt>
      <trkpt lat="46.71366" lon="-1.96764">
        <ele>15</ele>
        <time>2018-03-21T17:33:17Z</time>
      </trkpt>
      <trkpt lat="46.71324" lon="-1.96755">
        <ele>17</ele>
        <time>2018-03-21T17:34:17Z</time>
      </trkpt>
      <trkpt lat="46.71286" lon="-1.96755">
        <ele>16</ele>
        <time>2018-03-21T17:35:17Z</time>
      </trkpt>
      <trkpt lat="46.7125" lon="-1.96763">
        <ele>15</ele>
        <time>2018-03-21T17:36:17Z</time>
      </trkpt>
      <trkpt lat="46.71237" lon="-1.96768">
        <ele>15</ele>
        <time>2018-03-21T17:37:17Z</time>
      </trkpt>
      <trkpt lat="46.71045" lon="-1.96769">
        <ele>13</ele>
        <time>2018-03-21T17:38:17Z</time>
      </trkpt>
      <trkpt lat="46.71025" lon="-1.96781">
        <ele>13</ele>
        <time>2018-03-21T17:39:17Z</time>
      </trkpt>
      <trkpt lat="46.71021" lon="-1.96789">
        <ele>13</ele>
        <time>2018-03-21T17:40:17Z</time>
      </trkpt>
      <trkpt lat="46.71015" lon="-1.96796">
        <ele>13</ele>
        <time>2018-03-21T17:41:17Z</time>
      </trkpt>
      <trkpt lat="46.71007" lon="-1.96797">
        <ele>13</ele>
        <time>2018-03-21T17:42:17Z</time>
      </trkpt>
      <trkpt lat="46.70999" lon="-1.96793">
        <ele>13</ele>
        <time>2018-03-21T17:43:17Z</time>
      </trkpt>
      <trkpt lat="46.70994" lon="-1.96784">
        <ele>13</ele>
        <time>2018-03-21T17:44:17Z</time>
      </trkpt>
      <trkpt lat="46.70992" lon="-1.96773">
        <ele>13</ele>
        <time>2018-03-21T17:45:17Z</time>
      </trkpt>
      <trkpt lat="46.70994" lon="-1.96761">
        <ele>13</ele>
        <time>2018-03-21T17:46:17Z</time>
      </trkpt>
      <trkpt lat="46.7098" lon="-1.96717">
        <ele>13</ele>
        <time>2018-03-21T17:47:17Z</time>
      </trkpt>
      <trkpt lat="46.7098" lon="-1.96717">
        <ele>13</ele>
        <time>2018-03-21T17:48:17Z</time>
      </trkpt>
      <trkpt lat="46.70949" lon="-1.96643">
        <ele>13</ele>
        <time>2018-03-21T17:49:17Z</time>
      </trkpt>
      <trkpt lat="46.70942" lon="-1.96622">
        <ele>13</ele>
        <time>2018-03-21T17:50:17Z</time>
      </trkpt>
      <trkpt lat="46.70939" lon="-1.96593">
        <ele>13</ele>
        <time>2018-03-21T17:51:17Z</time>
      </trkpt>
      <trkpt lat="46.70944" lon="-1.96518">
        <ele>14</ele>
        <time>2018-03-21T17:52:17Z</time>
      </trkpt>
      <trkpt lat="46.70959" lon="-1.96471">
        <ele>14</ele>
        <time>2018-03-21T17:53:17Z</time>
      </trkpt>
      <trkpt lat="46.70972" lon="-1.96401">
        <ele>14</ele>
        <time>2018-03-21T17:54:17Z</time>
      </trkpt>
      <trkpt lat="46.70979" lon="-1.96353">
        <ele>13</ele>
        <time>2018-03-21T17:55:17Z</time>
      </trkpt>
      <trkpt lat="46.70981" lon="-1.96307">
        <ele>13</ele>
        <time>2018-03-21T17:56:17Z</time>
      </trkpt>
      <trkpt lat="46.70981" lon="-1.96248">
        <ele>13</ele>
        <time>2018-03-21T17:57:17Z</time>
      </trkpt>
      <trkpt lat="46.70978" lon="-1.96126">
        <ele>15</ele>
        <time>2018-03-21T17:58:17Z</time>
      </trkpt>
      <trkpt lat="46.70977" lon="-1.96108">
        <ele>16</ele>
        <time>2018-03-21T17:59:17Z</time>
      </trkpt>
      <trkpt lat="46.70971" lon="-1.96104">
        <ele>16</ele>
        <time>2018-03-21T18:00:17Z</time>
      </trkpt>
      <trkpt lat="46.7097" lon="-1.96097">
        <ele>16</ele>
        <time>2018-03-21T18:01:17Z</time>
      </trkpt>
      <trkpt lat="46.70824" lon="-1.96083">
        <ele>15</ele>
        <time>2018-03-21T18:02:17Z</time>
      </trkpt>
      <trkpt lat="46.70737" lon="-1.96077">
        <ele>16</ele>
        <time>2018-03-21T18:03:17Z</time>
      </trkpt>
      <trkpt lat="46.70712" lon="-1.96092">
        <ele>16</ele>
        <time>2018-03-21T18:04:17Z</time>
      </trkpt>
      <trkpt lat="46.70703" lon="-1.96086">
        <ele>16</ele>
        <time>2018-03-21T18:05:17Z</time>
      </trkpt>
      <trkpt lat="46.70704" lon="-1.96073">
        <ele>16</ele>
        <time>2018-03-21T18:06:17Z</time>
      </trkpt>
      <trkpt lat="46.70592" lon="-1.96057">
        <ele>16</ele>
        <time>2018-03-21T18:07:17Z</time>
      </trkpt>
      <trkpt lat="46.70494" lon="-1.96027">
        <ele>15</ele>
        <time>2018-03-21T18:08:17Z</time>
      </trkpt>
      <trkpt lat="46.70461" lon="-1.96012">
        <ele>15</ele>
        <time>2018-03-21T18:09:17Z</time>
      </trkpt>
      <trkpt lat="46.70359" lon="-1.95952">
        <ele>15</ele>
        <time>2018-03-21T18:10:17Z</time>
      </trkpt>
      <trkpt lat="46.70354" lon="-1.95957">
        <ele>15</ele>
        <time>2018-03-21T18:11:17Z</time>
      </trkpt>
      <trkpt lat="46.70348" lon="-1.95957">
        <ele>15</ele>
        <time>2018-03-21T18:12:17Z</time>
      </trkpt>
      <trkpt lat="46.70344" lon="-1.9595">
        <ele>15</ele>
        <time>2018-03-21T18:13:17Z</time>
      </trkpt>
      <trkpt lat="46.70345" lon="-1.95942">
        <ele>14</ele>
        <time>2018-03-21T18:14:17Z</time>
      </trkpt>
      <trkpt lat="46.70273" lon="-1.95874">
        <ele>13</ele>
        <time>2018-03-21T18:15:17Z</time>
      </trkpt>
      <trkpt lat="46.70251" lon="-1.95847">
        <ele>12</ele>
        <time>2018-03-21T18:16:17Z</time>
      </trkpt>
      <trkpt lat="46.70227" lon="-1.95815">
        <ele>12</ele>
        <time>2018-03-21T18:17:17Z</time>
      </trkpt>
      <trkpt lat="46.70208" lon="-1.95782">
        <ele>12</ele>
        <time>2018-03-21T18:18:17Z</time>
      </trkpt>
      <trkpt lat="46.70184" lon="-1.95714">
        <ele>12</ele>
        <time>2018-03-21T18:19:17Z</time>
      </trkpt>
      <trkpt lat="46.70168" lon="-1.95656">
        <ele>12</ele>
        <time>2018-03-21T18:20:17Z</time>
      </trkpt>
      <trkpt lat="46.70165" lon="-1.95657">
        <ele>12</ele>
        <time>2018-03-21T18:21:17Z</time>
      </trkpt>
      <trkpt lat="46.70159" lon="-1.95652">
        <ele>12</ele>
        <time>2018-03-21T18:22:17Z</time>
      </trkpt>
      <trkpt lat="46.70157" lon="-1.95647">
        <ele>12</ele>
        <time>2018-03-21T18:23:17Z</time>
      </trkpt>
      <trkpt lat="46.70157" lon="-1.9564">
        <ele>12</ele>
        <time>2018-03-21T18:24:17Z</time>
      </trkpt>
      <trkpt lat="46.70161" lon="-1.9563">
        <ele>11</ele>
        <time>2018-03-21T18:25:17Z</time>
      </trkpt>
      <trkpt lat="46.70163" lon="-1.95628">
        <ele>11</ele>
        <time>2018-03-21T18:26:17Z</time>
      </trkpt>
      <trkpt lat="46.70159" lon="-1.95594">
        <ele>10</ele>
        <time>2018-03-21T18:27:17Z</time>
      </trkpt>
      <trkpt lat="46.70142" lon="-1.95491">
        <ele>9</ele>
        <time>2018-03-21T18:28:17Z</time>
      </trkpt>
      <trkpt lat="46.70137" lon="-1.95441">
        <ele>9</ele>
        <time>2018-03-21T18:29:17Z</time>
      </trkpt>
      <trkpt lat="46.70141" lon="-1.9539">
        <ele>8</ele>
        <time>2018-03-21T18:30:17Z</time>
      </trkpt>
      <trkpt lat="46.70162" lon="-1.95255">
        <ele>5</ele>
        <time>2018-03-21T18:31:17Z</time>
      </trkpt>
      <trkpt lat="46.70163" lon="-1.95164">
        <ele>6</ele>
        <time>2018-03-21T18:32:17Z</time>
      </trkpt>
      <trkpt lat="46.70157" lon="-1.95112">
        <ele>5</ele>
        <time>2018-03-21T18:33:17Z</time>
      </trkpt>
      <trkpt lat="46.70155" lon="-1.9506">
        <ele>5</ele>
        <time>2018-03-21T18:34:17Z</time>
      </trkpt>
      <trkpt lat="46.70158" lon="-1.94877">
        <ele>2</ele>
        <time>2018-03-21T18:35:17Z</time>
      </trkpt>
      <trkpt lat="46.70164" lon="-1.94733">
        <ele>3</ele>
        <time>2018-03-21T18:36:17Z</time>
      </trkpt>
      <trkpt lat="46.70167" lon="-1.94686">
        <ele>4</ele>
        <time>2018-03-21T18:37:17Z</time>
      </trkpt>
      <trkpt lat="46.70162" lon="-1.94687">
        <ele>4</ele>
        <time>2018-03-21T18:38:17Z</time>
      </trkpt>
      <trkpt lat="46.70156" lon="-1.94682">
        <ele>4</ele>
        <time>2018-03-21T18:39:17Z</time>
      </trkpt>
      <trkpt lat="46.70154" lon="-1.94677">
        <ele>4</ele>
        <time>2018-03-21T18:40:17Z</time>
      </trkpt>
      <trkpt lat="46.70154" lon="-1.94666">
        <ele>4</ele>
        <time>2018-03-21T18:41:17Z</time>
      </trkpt>
      <trkpt lat="46.7016" lon="-1.94657">
        <ele>4</ele>
        <time>2018-03-21T18:42:17Z</time>
      </trkpt>
      <trkpt lat="46.70165" lon="-1.94656">
        <ele>4</ele>
        <time>2018-03-21T18:43:17Z</time>
      </trkpt>
      <trkpt lat="46.70165" lon="-1.94576">
        <ele>4</ele>
        <time>2018-03-21T18:44:17Z</time>
      </trkpt>
      <trkpt lat="46.70168" lon="-1.94427">
        <ele>4</ele>
        <time>2018-03-21T18:45:17Z</time>
      </trkpt>
      <trkpt lat="46.70183" lon="-1.94268">
        <ele>5</ele>
        <time>2018-03-21T18:46:17Z</time>
      </trkpt>
      <trkpt lat="46.70181" lon="-1.94236">
        <ele>5</ele>
        <time>2018-03-21T18:47:17Z</time>
      </trkpt>
      <trkpt lat="46.70151" lon="-1.93989">
        <ele>2</ele>
        <time>2018-03-21T18:48:17Z</time>
      </trkpt>
      <trkpt lat="46.7015" lon="-1.93956">
        <ele>3</ele>
        <time>2018-03-21T18:49:17Z</time>
      </trkpt>
      <trkpt lat="46.70147" lon="-1.93955">
        <ele>3</ele>
        <time>2018-03-21T18:50:17Z</time>
      </trkpt>
      <trkpt lat="46.70142" lon="-1.93948">
        <ele>3</ele>
        <time>2018-03-21T18:51:17Z</time>
      </trkpt>
      <trkpt lat="46.70142" lon="-1.93938">
        <ele>3</ele>
        <time>2018-03-21T18:52:17Z</time>
      </trkpt>
      <trkpt lat="46.70143" lon="-1.93933">
        <ele>3</ele>
        <time>2018-03-21T18:53:17Z</time>
      </trkpt>
      <trkpt lat="46.70114" lon="-1.93907">
        <ele>3</ele>
        <time>2018-03-21T18:54:17Z</time>
      </trkpt>
      <trkpt lat="46.70108" lon="-1.93903">
        <ele>3</ele>
        <time>2018-03-21T18:55:17Z</time>
      </trkpt>
      <trkpt lat="46.70072" lon="-1.93884">
        <ele>3</ele>
        <time>2018-03-21T18:56:17Z</time>
      </trkpt>
      <trkpt lat="46.69879" lon="-1.93812">
        <ele>3</ele>
        <time>2018-03-21T18:57:17Z</time>
      </trkpt>
      <trkpt lat="46.69774" lon="-1.93753">
        <ele>5</ele>
        <time>2018-03-21T18:58:17Z</time>
      </trkpt>
      <trkpt lat="46.69774" lon="-1.93753">
        <ele>5</ele>
        <time>2018-03-21T18:59:17Z</time>
      </trkpt>
      <trkpt lat="46.69704" lon="-1.93707">
        <ele>3</ele>
        <time>2018-03-21T19:00:17Z</time>
      </trkpt>
      <trkpt lat="46.69617" lon="-1.93615">
        <ele>4</ele>
        <time>2018-03-21T19:01:17Z</time>
      </trkpt>
      <trkpt lat="46.69599" lon="-1.93601">
        <ele>4</ele>
        <time>2018-03-21T19:02:17Z</time>
      </trkpt>
      <trkpt lat="46.69593" lon="-1.93602">
        <ele>4</ele>
        <time>2018-03-21T19:03:17Z</time>
      </trkpt>
      <trkpt lat="46.69588" lon="-1.93598">
        <ele>4</ele>
        <time>2018-03-21T19:04:17Z</time>
      </trkpt>
      <trkpt lat="46.69586" lon="-1.93592">
        <ele>4</ele>
        <time>2018-03-21T19:05:17Z</time>
      </trkpt>
      <trkpt lat="46.69586" lon="-1.93586">
        <ele>4</ele>
        <time>2018-03-21T19:06:17Z</time>
      </trkpt>
      <trkpt lat="46.69588" lon="-1.9358">
        <ele>4</ele>
        <time>2018-03-21T19:07:17Z</time>
      </trkpt>
      <trkpt lat="46.69596" lon="-1.93577">
        <ele>4</ele>
        <time>2018-03-21T19:08:17Z</time>
      </trkpt>
      <trkpt lat="46.69602" lon="-1.93583">
        <ele>4</ele>
        <time>2018-03-21T19:09:17Z</time>
      </trkpt>
      <trkpt lat="46.69606" lon="-1.93573">
        <ele>4</ele>
        <time>2018-03-21T19:10:17Z</time>
      </trkpt>
      <trkpt lat="46.69608" lon="-1.93551">
        <ele>4</ele>
        <time>2018-03-21T19:11:17Z</time>
      </trkpt>
      <trkpt lat="46.69606" lon="-1.93547">
        <ele>4</ele>
        <time>2018-03-21T19:12:17Z</time>
      </trkpt>
      <trkpt lat="46.69623" lon="-1.93448">
        <ele>4</ele>
        <time>2018-03-21T19:13:17Z</time>
      </trkpt>
      <trkpt lat="46.69627" lon="-1.93443">
        <ele>4</ele>
        <time>2018-03-21T19:14:17Z</time>
      </trkpt>
      <trkpt lat="46.69624" lon="-1.93436">
        <ele>4</ele>
        <time>2018-03-21T19:15:17Z</time>
      </trkpt>
      <trkpt lat="46.69619" lon="-1.93434">
        <ele>4</ele>
        <time>2018-03-21T19:16:17Z</time>
      </trkpt>
      <trkpt lat="46.69616" lon="-1.93426">
        <ele>4</ele>
        <time>2018-03-21T19:17:17Z</time>
      </trkpt>
      <trkpt lat="46.69617" lon="-1.9342">
        <ele>4</ele>
        <time>2018-03-21T19:18:17Z</time>
      </trkpt>
      <trkpt lat="46.69619" lon="-1.93416">
        <ele>4</ele>
        <time>2018-03-21T19:19:17Z</time>
      </trkpt>
      <trkpt lat="46.69624" lon="-1.93414">
        <ele>5</ele>
        <time>2018-03-21T19:20:17Z</time>
      </trkpt>
      <trkpt lat="46.69627" lon="-1.93415">
        <ele>5</ele>
        <time>2018-03-21T19:21:17Z</time>
      </trkpt>
      <trkpt lat="46.69631" lon="-1.93425">
        <ele>4</ele>
        <time>2018-03-21T19:22:17Z</time>
      </trkpt>
      <trkpt lat="46.69667" lon="-1.93431">
        <ele>5</ele>
        <time>2018-03-21T19:23:17Z</time>
      </trkpt>
      <trkpt lat="46.69684" lon="-1.93436">
        <ele>5</ele>
        <time>2018-03-21T19:24:17Z</time>
      </trkpt>
      <trkpt lat="46.69709" lon="-1.93437">
        <ele>5</ele>
        <time>2018-03-21T19:25:17Z</time>
      </trkpt>
      <trkpt lat="46.69777" lon="-1.93421">
        <ele>5</ele>
        <time>2018-03-21T19:26:17Z</time>
      </trkpt>
      <trkpt lat="46.69784" lon="-1.93422">
        <ele>5</ele>
        <time>2018-03-21T19:27:17Z</time>
      </trkpt>
      <trkpt lat="46.69787" lon="-1.93417">
        <ele>5</ele>
        <time>2018-03-21T19:28:17Z</time>
      </trkpt>
      <trkpt lat="46.69791" lon="-1.93418">
        <ele>5</ele>
        <time>2018-03-21T19:29:17Z</time>
      </trkpt>
      <trkpt lat="46.69793" lon="-1.9342">
        <ele>5</ele>
        <time>2018-03-21T19:30:17Z</time>
      </trkpt>
      <trkpt lat="46.69813" lon="-1.9341">
        <ele>5</ele>
        <time>2018-03-21T19:31:17Z</time>
      </trkpt>
      <trkpt lat="46.69879" lon="-1.93388">
        <ele>5</ele>
        <time>2018-03-21T19:32:17Z</time>
      </trkpt>
    </trkseg>
  </trk>
</gpx>